Observation data for Endee on 05/25/2019      Previous  Date  Next       Current Mesonet Observations  Soil Data  Daily Summary Page  Observations in Plain Language
KEN1 250500Z 15017KT 19/16 A2994 RMK A01 T01860155  RH  082%=      5-min Rain = 0
KEN1 250501Z 15017G23KT 19/16 A2994 RMK A01 T01860155  RH  082%=      5-min Rain = 0
KEN1 250502Z 15018G24KT 19/16 A2994 RMK A01 T01870156  RH  082%=      5-min Rain = 0
KEN1 250503Z 15018KT 19/16 A2994 RMK A01 T01880156  RH  082%=      5-min Rain = 0
KEN1 250504Z 15015G20KT 19/16 A2994 RMK A01 T01880156  RH  082%=      5-min Rain = 0
KEN1 250505Z 15018KT 19/16 A2994 RMK A01 T01880156  RH  082%=      5-min Rain = 0
KEN1 250506Z 15017KT 19/16 A2994 RMK A01 T01880157  RH  082%=      5-min Rain = 0
KEN1 250507Z 15018KT 19/16 A2994 RMK A01 T01880156  RH  082%=      5-min Rain = 0
KEN1 250508Z 15016KT 19/16 A2994 RMK A01 T01880156  RH  082%=      5-min Rain = 0
KEN1 250509Z 15016KT 19/16 A2995 RMK A01 T01880156  RH  082%=      5-min Rain = 0
KEN1 250510Z 15017KT 19/16 A2995 RMK A01 T01880157  RH  082%=      5-min Rain = 0
KEN1 250511Z 15016KT 19/16 A2995 RMK A01 T01880157  RH  082%=      5-min Rain = 0
KEN1 250512Z 15017KT 19/16 A2995 RMK A01 T01880157  RH  082%=      5-min Rain = 0
KEN1 250513Z 15017KT 19/16 A2995 RMK A01 T01880157  RH  082%=      5-min Rain = 0
KEN1 250514Z 15017KT 19/16 A2995 RMK A01 T01880157  RH  083%=      5-min Rain = 0
KEN1 250515Z 15018KT 19/16 A2995 RMK A01 T01880157  RH  082%=      5-min Rain = 0
KEN1 250516Z 16019KT 19/16 A2995 RMK A01 T01880158  RH  082%=      5-min Rain = 0
KEN1 250517Z 16016KT 19/16 A2995 RMK A01 T01890158  RH  082%=      5-min Rain = 0
KEN1 250518Z 16017KT 19/16 A2995 RMK A01 T01890158  RH  082%=      5-min Rain = 0
KEN1 250519Z 16016KT 19/16 A2996 RMK A01 T01890158  RH  082%=      5-min Rain = 0
KEN1 250520Z 16018G24KT 19/16 A2996 RMK A01 T01890159  RH  082%=      5-min Rain = 0
KEN1 250521Z 16015KT 19/16 A2996 RMK A01 T01890159  RH  082%=      5-min Rain = 0
KEN1 250522Z 16015KT 19/16 A2996 RMK A01 T01890159  RH  082%=      5-min Rain = 0
KEN1 250523Z 16016KT 19/16 A2996 RMK A01 T01890158  RH  082%=      5-min Rain = 0
KEN1 250524Z 16015KT 19/16 A2996 RMK A01 T01900159  RH  082%=      5-min Rain = 0
KEN1 250525Z 16013KT 19/16 A2996 RMK A01 T01900159  RH  082%=      5-min Rain = 0
KEN1 250526Z 16012KT 19/16 A2996 RMK A01 T01900159  RH  082%=      5-min Rain = 0
KEN1 250527Z 16015KT 19/16 A2996 RMK A01 T01890159  RH  083%=      5-min Rain = 0
KEN1 250528Z 16013KT 19/16 A2996 RMK A01 T01890159  RH  083%=      5-min Rain = 0
KEN1 250529Z 16013KT 19/16 A2996 RMK A01 T01890159  RH  083%=      5-min Rain = 0
KEN1 250530Z 16012KT 19/16 A2996 RMK A01 T01890160  RH  083%=      5-min Rain = 0
KEN1 250531Z 16012KT 19/16 A2996 RMK A01 T01890160  RH  083%=      5-min Rain = 0
KEN1 250532Z 16012KT 19/16 A2996 RMK A01 T01890161  RH  083%=      5-min Rain = 0
KEN1 250533Z 16013KT 19/16 A2996 RMK A01 T01890161  RH  083%=      5-min Rain = 0
KEN1 250534Z 16013KT 19/16 A2996 RMK A01 T01900161  RH  083%=      5-min Rain = 0
KEN1 250535Z 16010KT 19/16 A2996 RMK A01 T01900161  RH  083%=      5-min Rain = 0
KEN1 250536Z 16012KT 19/16 A2996 RMK A01 T01900161  RH  083%=      5-min Rain = 0
KEN1 250537Z 16013KT 19/16 A2996 RMK A01 T01900162  RH  084%=      5-min Rain = 0
KEN1 250538Z 16011KT 19/16 A2996 RMK A01 T01900161  RH  084%=      5-min Rain = 0
KEN1 250539Z 16012KT 19/16 A2996 RMK A01 T01900162  RH  084%=      5-min Rain = 0
KEN1 250540Z 16010KT 19/16 A2996 RMK A01 T01900162  RH  084%=      5-min Rain = 0
KEN1 250541Z 15008KT 19/16 A2996 RMK A01 T01900162  RH  084%=      5-min Rain = 0
KEN1 250542Z 15008KT 19/16 A2996 RMK A01 T01900162  RH  084%=      5-min Rain = 0
KEN1 250543Z 15008KT 19/16 A2996 RMK A01 T01900162  RH  084%=      5-min Rain = 0
KEN1 250544Z 15009KT 19/16 A2996 RMK A01 T01900162  RH  084%=      5-min Rain = 0
KEN1 250545Z 15009KT 19/16 A2996 RMK A01 T01890162  RH  084%=      5-min Rain = 0
KEN1 250546Z 15008KT 19/16 A2996 RMK A01 T01890162  RH  084%=      5-min Rain = 0
KEN1 250547Z 15008KT 19/16 A2996 RMK A01 T01900163  RH  084%=      5-min Rain = 0
KEN1 250548Z 15008KT 19/16 A2996 RMK A01 T01900162  RH  084%=      5-min Rain = 0
KEN1 250549Z 16008KT 19/16 A2996 RMK A01 T01900162  RH  084%=      5-min Rain = 0
KEN1 250550Z 16011KT 19/16 A2996 RMK A01 T01890163  RH  084%=      5-min Rain = 0
KEN1 250551Z 15008KT 19/16 A2996 RMK A01 T01900163  RH  084%=      5-min Rain = 0
KEN1 250552Z 16006KT 19/16 A2996 RMK A01 T01900163  RH  084%=      5-min Rain = 0
KEN1 250553Z 15007KT 19/16 A2996 RMK A01 T01900163  RH  085%=      5-min Rain = 0
KEN1 250554Z 15007KT 19/16 A2996 RMK A01 T01890163  RH  085%=      5-min Rain = 0
KEN1 250555Z 15008KT 19/16 A2996 RMK A01 T01890163  RH  085%=      5-min Rain = 0
KEN1 250556Z 16009KT 19/16 A2996 RMK A01 T01880163  RH  085%=      5-min Rain = 0
KEN1 250557Z 16009KT 19/16 A2996 RMK A01 T01890163  RH  085%=      5-min Rain = 0
KEN1 250558Z 16009KT 19/16 A2996 RMK A01 T01890163  RH  085%=      5-min Rain = 0
KEN1 250559Z 16009KT 19/16 A2996 RMK A01 T01890163  RH  085%=      5-min Rain = 0
KEN1 250600Z 16007KT 19/16 A2996 RMK A01 T01890163  RH  085%=      5-min Rain = 0
KEN1 250601Z 15008KT 19/16 A2996 RMK A01 T01890163  RH  085%=      5-min Rain = 0
KEN1 250602Z 16012KT 19/16 A2996 RMK A01 T01880164  RH  086%=      5-min Rain = 0
KEN1 250603Z 16009KT 19/16 A2996 RMK A01 T01880164  RH  086%=      5-min Rain = 0
KEN1 250604Z 17008KT 19/17 A2996 RMK A01 T01890165  RH  086%=      5-min Rain = 0
KEN1 250605Z 16007KT 19/17 A2996 RMK A01 T01890165  RH  086%=      5-min Rain = 0
KEN1 250606Z 16008KT 19/16 A2996 RMK A01 T01880164  RH  086%=      5-min Rain = 0
KEN1 250607Z 17007KT 19/17 A2996 RMK A01 T01890165  RH  086%=      5-min Rain = 0
KEN1 250608Z 15007KT 19/17 A2996 RMK A01 T01890165  RH  086%=      5-min Rain = 0
KEN1 250609Z 16008KT 19/17 A2996 RMK A01 T01890165  RH  086%=      5-min Rain = 0
KEN1 250610Z 16010KT 19/17 A2996 RMK A01 T01880165  RH  086%=      5-min Rain = 0
KEN1 250611Z 16009KT 19/17 A2996 RMK A01 T01880165  RH  086%=      5-min Rain = 0
KEN1 250612Z 16010KT 19/17 A2996 RMK A01 T01890165  RH  086%=      5-min Rain = 0
KEN1 250613Z 16013KT 19/17 A2996 RMK A01 T01890166  RH  086%=      5-min Rain = 0
KEN1 250614Z 16011KT 19/17 A2996 RMK A01 T01900166  RH  086%=      5-min Rain = 0
KEN1 250615Z 16011KT 19/17 A2996 RMK A01 T01900166  RH  086%=      5-min Rain = 0
KEN1 250616Z 17010KT 19/17 A2996 RMK A01 T01900167  RH  086%=      5-min Rain = 0
KEN1 250617Z 16008KT 19/17 A2996 RMK A01 T01900166  RH  086%=      5-min Rain = 0
KEN1 250618Z 16010KT 19/17 A2996 RMK A01 T01900166  RH  086%=      5-min Rain = 0
KEN1 250619Z 16012KT 19/17 A2996 RMK A01 T01890166  RH  086%=      5-min Rain = 0
KEN1 250620Z 16012KT 19/17 A2995 RMK A01 T01900167  RH  086%=      5-min Rain = 0
KEN1 250621Z 16010KT 19/17 A2995 RMK A01 T01900167  RH  086%=      5-min Rain = 0
KEN1 250622Z 16009KT 19/17 A2995 RMK A01 T01890166  RH  086%=      5-min Rain = 0
KEN1 250623Z 17010KT 19/17 A2995 RMK A01 T01880166  RH  087%=      5-min Rain = 0
KEN1 250624Z 16012KT 19/17 A2995 RMK A01 T01880166  RH  087%=      5-min Rain = 0
KEN1 250625Z 16013KT 19/17 A2995 RMK A01 T01880167  RH  087%=      5-min Rain = 0
KEN1 250626Z 16012KT 19/17 A2995 RMK A01 T01880167  RH  087%=      5-min Rain = 0
KEN1 250627Z 17012KT 19/17 A2995 RMK A01 T01890167  RH  087%=      5-min Rain = 0
KEN1 250628Z 17012KT 19/17 A2995 RMK A01 T01890167  RH  087%=      5-min Rain = 0
KEN1 250629Z 17011KT 19/17 A2995 RMK A01 T01880167  RH  087%=      5-min Rain = 0
KEN1 250630Z 17011KT 19/17 A2995 RMK A01 T01880167  RH  087%=      5-min Rain = 0
KEN1 250631Z 17012KT 19/17 A2995 RMK A01 T01870166  RH  088%=      5-min Rain = 0
KEN1 250632Z 17013KT 19/17 A2995 RMK A01 T01870167  RH  088%=      5-min Rain = 0
KEN1 250633Z 17013KT 19/17 A2995 RMK A01 T01870167  RH  088%=      5-min Rain = 0
KEN1 250634Z 17014KT 19/17 A2995 RMK A01 T01870167  RH  088%=      5-min Rain = 0
KEN1 250635Z 18014KT 19/17 A2995 RMK A01 T01870167  RH  088%=      5-min Rain = 0
KEN1 250636Z 17015KT 19/17 A2995 RMK A01 T01870167  RH  088%=      5-min Rain = 0
KEN1 250637Z 18013G18KT 19/17 A2994 RMK A01 T01880168  RH  088%=      5-min Rain = 0
KEN1 250638Z 18013KT 19/17 A2994 RMK A01 T01880167  RH  088%=      5-min Rain = 0
KEN1 250639Z 17015KT 19/17 A2994 RMK A01 T01870168  RH  088%=      5-min Rain = 0
KEN1 250640Z 17014KT 19/17 A2994 RMK A01 T01870168  RH  088%=      5-min Rain = 0
KEN1 250641Z 17014KT 19/17 A2994 RMK A01 T01870168  RH  089%=      5-min Rain = 0
KEN1 250642Z 18018KT 19/17 A2994 RMK A01 T01870168  RH  089%=      5-min Rain = 0
KEN1 250643Z 18013G18KT 19/17 A2994 RMK A01 T01880168  RH  089%=      5-min Rain = 0
KEN1 250644Z 18015KT 19/17 A2994 RMK A01 T01880169  RH  089%=      5-min Rain = 0
KEN1 250645Z 18014KT 19/17 A2994 RMK A01 T01880169  RH  089%=      5-min Rain = 0
KEN1 250646Z 18015KT 19/17 A2994 RMK A01 T01880169  RH  089%=      5-min Rain = 0
KEN1 250647Z 18014KT 19/17 A2994 RMK A01 T01880169  RH  089%=      5-min Rain = 0
KEN1 250648Z 18014KT 19/17 A2994 RMK A01 T01870169  RH  089%=      5-min Rain = 0
KEN1 250649Z 18014KT 19/17 A2994 RMK A01 T01870169  RH  089%=      5-min Rain = 0
KEN1 250650Z 18014KT 19/17 A2994 RMK A01 T01870169  RH  089%=      5-min Rain = 0
KEN1 250651Z 18013KT 19/17 A2994 RMK A01 T01870169  RH  089%=      5-min Rain = 0
KEN1 250652Z 18013KT 19/17 A2994 RMK A01 T01870169  RH  089%=      5-min Rain = 0
KEN1 250653Z 18013KT 19/17 A2994 RMK A01 T01870169  RH  089%=      5-min Rain = 0
KEN1 250654Z 18012KT 19/17 A2994 RMK A01 T01870169  RH  090%=      5-min Rain = 0
KEN1 250655Z 18014KT 19/17 A2994 RMK A01 T01860169  RH  090%=      5-min Rain = 0
KEN1 250656Z 18015G21KT 19/17 A2994 RMK A01 T01860169  RH  090%=      5-min Rain = 0
KEN1 250657Z 18016KT 19/17 A2994 RMK A01 T01860169  RH  090%=      5-min Rain = 0
KEN1 250658Z 18014KT 19/17 A2994 RMK A01 T01870169  RH  090%=      5-min Rain = 0
KEN1 250659Z 18015KT 19/17 A2994 RMK A01 T01870170  RH  089%=      5-min Rain = 0
KEN1 250700Z 18015KT 19/17 A2994 RMK A01 T01870169  RH  089%=      5-min Rain = 0
KEN1 250701Z 18016KT 19/17 A2994 RMK A01 T01870169  RH  089%=      5-min Rain = 0
KEN1 250702Z 18015KT 19/17 A2994 RMK A01 T01870170  RH  089%=      5-min Rain = 0
KEN1 250703Z 18015KT 19/17 A2994 RMK A01 T01870170  RH  089%=      5-min Rain = 0
KEN1 250704Z 18017KT 19/17 A2994 RMK A01 T01870170  RH  090%=      5-min Rain = 0
KEN1 250705Z 18015KT 19/17 A2994 RMK A01 T01880170  RH  089%=      5-min Rain = 0
KEN1 250706Z 18015KT 19/17 A2994 RMK A01 T01880170  RH  089%=      5-min Rain = 0
KEN1 250707Z 19015KT 19/17 A2994 RMK A01 T01880170  RH  089%=      5-min Rain = 0
KEN1 250708Z 19015KT 19/17 A2994 RMK A01 T01880170  RH  089%=      5-min Rain = 0
KEN1 250709Z 18015KT 19/17 A2994 RMK A01 T01890170  RH  089%=      5-min Rain = 0
KEN1 250710Z 18014KT 19/17 A2994 RMK A01 T01890171  RH  089%=      5-min Rain = 0
KEN1 250711Z 18014KT 19/17 A2994 RMK A01 T01890170  RH  089%=      5-min Rain = 0
KEN1 250712Z 19013KT 19/17 A2994 RMK A01 T01890170  RH  089%=      5-min Rain = 0
KEN1 250713Z 18016KT 19/17 A2994 RMK A01 T01880170  RH  089%=      5-min Rain = 0
KEN1 250714Z 18014KT 19/17 A2994 RMK A01 T01880170  RH  089%=      5-min Rain = 0
KEN1 250715Z 18014KT 19/17 A2994 RMK A01 T01880170  RH  089%=      5-min Rain = 0
KEN1 250716Z 18014KT 19/17 A2994 RMK A01 T01880170  RH  089%=      5-min Rain = 0
KEN1 250717Z 18012KT 19/17 A2994 RMK A01 T01880170  RH  089%=      5-min Rain = 0
KEN1 250718Z 18015G20KT 19/17 A2994 RMK A01 T01880170  RH  089%=      5-min Rain = 0
KEN1 250719Z 18018KT 19/17 A2994 RMK A01 T01880170  RH  089%=      5-min Rain = 0
KEN1 250720Z 18017KT 19/17 A2994 RMK A01 T01880170  RH  089%=      5-min Rain = 0
KEN1 250721Z 18016KT 19/17 A2994 RMK A01 T01880169  RH  089%=      5-min Rain = 0
KEN1 250722Z 18018KT 19/17 A2994 RMK A01 T01880169  RH  089%=      5-min Rain = 0
KEN1 250723Z 18017KT 19/17 A2994 RMK A01 T01880170  RH  089%=      5-min Rain = 0
KEN1 250724Z 18016KT 19/17 A2994 RMK A01 T01880170  RH  089%=      5-min Rain = 0
KEN1 250725Z 18017KT 19/17 A2994 RMK A01 T01870169  RH  089%=      5-min Rain = 0
KEN1 250726Z 18017KT 19/17 A2994 RMK A01 T01870169  RH  089%=      5-min Rain = 0
KEN1 250727Z 18017KT 19/17 A2994 RMK A01 T01870169  RH  090%=      5-min Rain = 0
KEN1 250728Z 18017KT 19/17 A2994 RMK A01 T01870169  RH  090%=      5-min Rain = 0
KEN1 250729Z 18017KT 19/17 A2994 RMK A01 T01870169  RH  090%=      5-min Rain = 0
KEN1 250730Z 18017KT 19/17 A2994 RMK A01 T01860169  RH  090%=      5-min Rain = 0
KEN1 250731Z 18016KT 19/17 A2994 RMK A01 T01870170  RH  090%=      5-min Rain = 0
KEN1 250732Z 18014KT 19/17 A2994 RMK A01 T01860169  RH  090%=      5-min Rain = 0
KEN1 250733Z 18015KT 19/17 A2994 RMK A01 T01860169  RH  090%=      5-min Rain = 0
KEN1 250734Z 18014KT 19/17 A2994 RMK A01 T01850169  RH  090%=      5-min Rain = 0
KEN1 250735Z 18015KT 19/17 A2994 RMK A01 T01850169  RH  090%=      5-min Rain = 0
KEN1 250736Z 18015KT 19/17 A2994 RMK A01 T01850169  RH  090%=      5-min Rain = 0
KEN1 250737Z 17014KT 19/17 A2994 RMK A01 T01850169  RH  090%=      5-min Rain = 0
KEN1 250738Z 18014KT 18/17 A2994 RMK A01 T01840168  RH  090%=      5-min Rain = 0
KEN1 250739Z 18012KT 18/17 A2994 RMK A01 T01840168  RH  090%=      5-min Rain = 0
KEN1 250740Z 17015KT 18/17 A2994 RMK A01 T01840168  RH  091%=      5-min Rain = 0
KEN1 250741Z 17014KT 18/17 A2994 RMK A01 T01840168  RH  091%=      5-min Rain = 0
KEN1 250742Z 17014KT 18/17 A2994 RMK A01 T01840168  RH  091%=      5-min Rain = 0
KEN1 250743Z 17014KT 18/17 A2994 RMK A01 T01830168  RH  091%=      5-min Rain = 0
KEN1 250744Z 17013KT 18/17 A2994 RMK A01 T01840168  RH  091%=      5-min Rain = 0
KEN1 250745Z 17013KT 18/17 A2995 RMK A01 T01830168  RH  091%=      5-min Rain = 0
KEN1 250746Z 18013KT 18/17 A2995 RMK A01 T01830167  RH  091%=      5-min Rain = 0
KEN1 250747Z 18012KT 18/17 A2995 RMK A01 T01830168  RH  091%=      5-min Rain = 0
KEN1 250748Z 18013KT 18/17 A2995 RMK A01 T01820167  RH  091%=      5-min Rain = 0
KEN1 250749Z 17013KT 18/17 A2994 RMK A01 T01820167  RH  091%=      5-min Rain = 0
KEN1 250750Z 18011KT 18/17 A2994 RMK A01 T01820167  RH  091%=      5-min Rain = 0
KEN1 250751Z 18011KT 18/17 A2994 RMK A01 T01810167  RH  091%=      5-min Rain = 0
KEN1 250752Z 18012KT 18/17 A2995 RMK A01 T01810166  RH  091%=      5-min Rain = 0
KEN1 250753Z 17013KT 18/17 A2994 RMK A01 T01800166  RH  092%=      5-min Rain = 0
KEN1 250754Z 17013KT 18/17 A2995 RMK A01 T01800166  RH  092%=      5-min Rain = 0
KEN1 250755Z 18013KT 18/17 A2994 RMK A01 T01800166  RH  092%=      5-min Rain = 0
KEN1 250756Z 17013KT 18/17 A2995 RMK A01 T01800166  RH  092%=      5-min Rain = 0
KEN1 250757Z 17012KT 18/17 A2995 RMK A01 T01800166  RH  092%=      5-min Rain = 0
KEN1 250758Z 17012KT 18/17 A2994 RMK A01 T01800166  RH  091%=      5-min Rain = 0
KEN1 250759Z 17012KT 18/17 A2994 RMK A01 T01800166  RH  092%=      5-min Rain = 0
KEN1 250800Z 17013KT 18/17 A2994 RMK A01 T01790165  RH  092%=      5-min Rain = 0
KEN1 250801Z 17011KT 18/17 A2994 RMK A01 T01790165  RH  092%=      5-min Rain = 0
KEN1 250802Z 17011KT 18/17 A2994 RMK A01 T01790165  RH  092%=      5-min Rain = 0
KEN1 250803Z 17011KT 18/17 A2994 RMK A01 T01780165  RH  092%=      5-min Rain = 0
KEN1 250804Z 16011KT 18/17 A2994 RMK A01 T01780165  RH  092%=      5-min Rain = 0
KEN1 250805Z 17011KT 18/17 A2994 RMK A01 T01780165  RH  092%=      5-min Rain = 0
KEN1 250806Z 16010KT 18/17 A2994 RMK A01 T01780165  RH  092%=      5-min Rain = 0
KEN1 250807Z 16011KT 18/17 A2994 RMK A01 T01770165  RH  092%=      5-min Rain = 0
KEN1 250808Z 16011KT 18/16 A2994 RMK A01 T01770164  RH  092%=      5-min Rain = 0
KEN1 250809Z 16011KT 18/16 A2994 RMK A01 T01770164  RH  092%=      5-min Rain = 0
KEN1 250810Z 16011KT 18/16 A2995 RMK A01 T01770164  RH  092%=      5-min Rain = 0
KEN1 250811Z 16011KT 18/16 A2995 RMK A01 T01760164  RH  092%=      5-min Rain = 0
KEN1 250812Z 16012KT 18/16 A2995 RMK A01 T01760164  RH  092%=      5-min Rain = 0
KEN1 250813Z 17012KT 18/17 A2995 RMK A01 T01770165  RH  093%=      5-min Rain = 0
KEN1 250814Z 16011KT 18/16 A2995 RMK A01 T01760164  RH  093%=      5-min Rain = 0
KEN1 250815Z 16011KT 18/16 A2995 RMK A01 T01760164  RH  093%=      5-min Rain = 0
KEN1 250816Z 16011KT 18/16 A2995 RMK A01 T01760164  RH  092%=      5-min Rain = 0
KEN1 250817Z 17011KT 18/16 A2995 RMK A01 T01760164  RH  093%=      5-min Rain = 0
KEN1 250818Z 16010KT 18/16 A2995 RMK A01 T01760164  RH  093%=      5-min Rain = 0
KEN1 250819Z 16011KT 18/16 A2995 RMK A01 T01760163  RH  092%=      5-min Rain = 0
KEN1 250820Z 17011KT 18/16 A2995 RMK A01 T01760163  RH  092%=      5-min Rain = 0
KEN1 250821Z 16010KT 18/16 A2995 RMK A01 T01760164  RH  092%=      5-min Rain = 0
KEN1 250822Z 17010KT 18/16 A2995 RMK A01 T01760163  RH  092%=      5-min Rain = 0
KEN1 250823Z 17010KT 18/16 A2995 RMK A01 T01760163  RH  093%=      5-min Rain = 0
KEN1 250824Z 17009KT 18/16 A2995 RMK A01 T01750163  RH  093%=      5-min Rain = 0
KEN1 250825Z 17010KT 18/16 A2995 RMK A01 T01750163  RH  093%=      5-min Rain = 0
KEN1 250826Z 17009KT 18/16 A2995 RMK A01 T01750163  RH  093%=      5-min Rain = 0
KEN1 250827Z 16009KT 18/16 A2995 RMK A01 T01750163  RH  093%=      5-min Rain = 0
KEN1 250828Z 17008KT 17/16 A2995 RMK A01 T01740163  RH  093%=      5-min Rain = 0
KEN1 250829Z 17008KT 17/16 A2995 RMK A01 T01740162  RH  093%=      5-min Rain = 0
KEN1 250830Z 16009KT 17/16 A2995 RMK A01 T01740162  RH  093%=      5-min Rain = 0
KEN1 250831Z 17009KT 17/16 A2995 RMK A01 T01730162  RH  093%=      5-min Rain = 0
KEN1 250832Z 16009KT 17/16 A2995 RMK A01 T01730162  RH  093%=      5-min Rain = 0
KEN1 250833Z 16010KT 17/16 A2995 RMK A01 T01730162  RH  093%=      5-min Rain = 0
KEN1 250834Z 16010KT 17/16 A2995 RMK A01 T01730162  RH  093%=      5-min Rain = 0
KEN1 250835Z 16010KT 17/16 A2995 RMK A01 T01730162  RH  093%=      5-min Rain = 0
KEN1 250836Z 16009KT 17/16 A2995 RMK A01 T01730162  RH  093%=      5-min Rain = 0
KEN1 250837Z 16010KT 17/16 A2995 RMK A01 T01730162  RH  093%=      5-min Rain = 0
KEN1 250838Z 16010KT 17/16 A2995 RMK A01 T01730162  RH  093%=      5-min Rain = 0
KEN1 250839Z 16009KT 17/16 A2995 RMK A01 T01730162  RH  093%=      5-min Rain = 0
KEN1 250840Z 16010KT 17/16 A2995 RMK A01 T01730162  RH  093%=      5-min Rain = 0
KEN1 250841Z 16009KT 17/16 A2995 RMK A01 T01730162  RH  093%=      5-min Rain = 0
KEN1 250842Z 16010KT 17/16 A2995 RMK A01 T01720162  RH  093%=      5-min Rain = 0
KEN1 250843Z 16010KT 17/16 A2995 RMK A01 T01720162  RH  093%=      5-min Rain = 0
KEN1 250844Z 16010KT 17/16 A2995 RMK A01 T01730163  RH  094%=      5-min Rain = 0
KEN1 250845Z 16010KT 17/16 A2995 RMK A01 T01720162  RH  094%=      5-min Rain = 0
KEN1 250846Z 16010KT 17/16 A2995 RMK A01 T01730163  RH  094%=      5-min Rain = 0
KEN1 250847Z 16010KT 17/16 A2995 RMK A01 T01730162  RH  094%=      5-min Rain = 0
KEN1 250848Z 16010KT 17/16 A2995 RMK A01 T01730162  RH  094%=      5-min Rain = 0
KEN1 250849Z 16012KT 17/16 A2995 RMK A01 T01730162  RH  094%=      5-min Rain = 0
KEN1 250850Z 16011KT 17/16 A2995 RMK A01 T01730163  RH  094%=      5-min Rain = 0
KEN1 250851Z 16011KT 17/16 A2995 RMK A01 T01730163  RH  094%=      5-min Rain = 0
KEN1 250852Z 16010KT 17/16 A2995 RMK A01 T01730162  RH  094%=      5-min Rain = 0
KEN1 250853Z 16011KT 17/16 A2995 RMK A01 T01730162  RH  094%=      5-min Rain = 0
KEN1 250854Z 16012KT 17/16 A2995 RMK A01 T01730163  RH  094%=      5-min Rain = 0
KEN1 250855Z 16011KT 17/16 A2995 RMK A01 T01730163  RH  094%=      5-min Rain = 0
KEN1 250856Z 16011KT 17/16 A2995 RMK A01 T01730162  RH  094%=      5-min Rain = 0
KEN1 250857Z 16012KT 17/16 A2995 RMK A01 T01730163  RH  094%=      5-min Rain = 0
KEN1 250858Z 15011KT 17/16 A2995 RMK A01 T01730163  RH  094%=      5-min Rain = 0
KEN1 250859Z 15010KT 17/16 A2995 RMK A01 T01730162  RH  093%=      5-min Rain = 0
KEN1 250900Z 15011KT 17/16 A2995 RMK A01 T01720162  RH  093%=      5-min Rain = 0
KEN1 250901Z 15010KT 17/16 A2995 RMK A01 T01720161  RH  094%=      5-min Rain = 0
KEN1 250902Z 15010KT 17/16 A2995 RMK A01 T01710161  RH  094%=      5-min Rain = 0
KEN1 250903Z 15011KT 17/16 A2995 RMK A01 T01700161  RH  094%=      5-min Rain = 0
KEN1 250904Z 16011KT 17/16 A2995 RMK A01 T01700161  RH  094%=      5-min Rain = 0
KEN1 250905Z 15012KT 17/16 A2995 RMK A01 T01700161  RH  094%=      5-min Rain = 0
KEN1 250906Z 16011KT 17/16 A2995 RMK A01 T01700161  RH  094%=      5-min Rain = 0
KEN1 250907Z 15012KT 17/16 A2995 RMK A01 T01700161  RH  094%=      5-min Rain = 0
KEN1 250908Z 15011KT 17/16 A2995 RMK A01 T01700161  RH  094%=      5-min Rain = 0
KEN1 250909Z 15011KT 17/16 A2995 RMK A01 T01700161  RH  094%=      5-min Rain = 0
KEN1 250910Z 15010KT 17/16 A2995 RMK A01 T01700161  RH  094%=      5-min Rain = 0
KEN1 250911Z 15011KT 17/16 A2995 RMK A01 T01700161  RH  094%=      5-min Rain = 0
KEN1 250912Z 15011KT 17/16 A2995 RMK A01 T01700161  RH  095%=      5-min Rain = 0
KEN1 250913Z 15011KT 17/16 A2995 RMK A01 T01700161  RH  095%=      5-min Rain = 0
KEN1 250914Z 15009KT 17/16 A2995 RMK A01 T01690160  RH  095%=      5-min Rain = 0
KEN1 250915Z 15010KT 17/16 A2995 RMK A01 T01690160  RH  095%=      5-min Rain = 0
KEN1 250916Z 15010KT 17/16 A2995 RMK A01 T01680160  RH  095%=      5-min Rain = 0
KEN1 250917Z 16011KT 17/16 A2995 RMK A01 T01690161  RH  095%=      5-min Rain = 0
KEN1 250918Z 15010KT 17/16 A2995 RMK A01 T01690161  RH  095%=      5-min Rain = 0
KEN1 250919Z 15009KT 17/16 A2995 RMK A01 T01690161  RH  095%=      5-min Rain = 0
KEN1 250920Z 15010KT 17/16 A2995 RMK A01 T01690161  RH  095%=      5-min Rain = 0
KEN1 250921Z 15010KT 17/16 A2995 RMK A01 T01690161  RH  095%=      5-min Rain = 0
KEN1 250922Z 15010KT 17/16 A2995 RMK A01 T01690161  RH  095%=      5-min Rain = 0
KEN1 250923Z 15010KT 17/16 A2995 RMK A01 T01690161  RH  095%=      5-min Rain = 0
KEN1 250924Z 14009KT 17/16 A2995 RMK A01 T01690160  RH  095%=      5-min Rain = 0
KEN1 250925Z 14009KT 17/16 A2995 RMK A01 T01680160  RH  095%=      5-min Rain = 0
KEN1 250926Z 14008KT 17/16 A2995 RMK A01 T01680159  RH  095%=      5-min Rain = 0
KEN1 250927Z 14008KT 17/16 A2995 RMK A01 T01670158  RH  095%=      5-min Rain = 0
KEN1 250928Z 15008KT 17/16 A2995 RMK A01 T01660158  RH  095%=      5-min Rain = 0
KEN1 250929Z 15008KT 17/16 A2995 RMK A01 T01660158  RH  095%=      5-min Rain = 0
KEN1 250930Z 15008KT 17/16 A2995 RMK A01 T01650158  RH  095%=      5-min Rain = 0
KEN1 250931Z 15009KT 17/16 A2995 RMK A01 T01650158  RH  095%=      5-min Rain = 0
KEN1 250932Z 15009KT 17/16 A2995 RMK A01 T01650158  RH  096%=      5-min Rain = 0
KEN1 250933Z 15009KT 17/16 A2995 RMK A01 T01660159  RH  096%=      5-min Rain = 0
KEN1 250934Z 15009KT 17/16 A2995 RMK A01 T01660159  RH  096%=      5-min Rain = 0
KEN1 250935Z 15010KT 17/16 A2995 RMK A01 T01660159  RH  096%=      5-min Rain = 0
KEN1 250936Z 15010KT 17/16 A2995 RMK A01 T01670160  RH  096%=      5-min Rain = 0
KEN1 250937Z 15009KT 17/16 A2995 RMK A01 T01660159  RH  095%=      5-min Rain = 0
KEN1 250938Z 15010KT 17/16 A2995 RMK A01 T01660159  RH  095%=      5-min Rain = 0
KEN1 250939Z 15009KT 17/16 A2995 RMK A01 T01670159  RH  095%=      5-min Rain = 0
KEN1 250940Z 15009KT 17/16 A2995 RMK A01 T01670159  RH  095%=      5-min Rain = 0
KEN1 250941Z 15009KT 17/16 A2995 RMK A01 T01670159  RH  095%=      5-min Rain = 0
KEN1 250942Z 15007KT 17/16 A2995 RMK A01 T01660159  RH  095%=      5-min Rain = 0
KEN1 250943Z 15008KT 17/16 A2995 RMK A01 T01670159  RH  095%=      5-min Rain = 0
KEN1 250944Z 15007KT 17/16 A2995 RMK A01 T01670159  RH  095%=      5-min Rain = 0
KEN1 250945Z 16008KT 17/16 A2995 RMK A01 T01670159  RH  095%=      5-min Rain = 0
KEN1 250946Z 15009KT 17/16 A2995 RMK A01 T01660159  RH  095%=      5-min Rain = 0
KEN1 250947Z 16010KT 17/16 A2995 RMK A01 T01660159  RH  095%=      5-min Rain = 0
KEN1 250948Z 16009KT 17/16 A2995 RMK A01 T01670160  RH  096%=      5-min Rain = 0
KEN1 250949Z 15009KT 17/16 A2995 RMK A01 T01680161  RH  095%=      5-min Rain = 0
KEN1 250950Z 16010KT 17/16 A2995 RMK A01 T01680161  RH  095%=      5-min Rain = 0
KEN1 250951Z 16010KT 17/16 A2995 RMK A01 T01690161  RH  095%=      5-min Rain = 0
KEN1 250952Z 16010KT 17/16 A2995 RMK A01 T01700162  RH  095%=      5-min Rain = 0
KEN1 250953Z 16010KT 17/16 A2995 RMK A01 T01700162  RH  095%=      5-min Rain = 0
KEN1 250954Z 16009KT 17/16 A2995 RMK A01 T01710162  RH  094%=      5-min Rain = 0
KEN1 250955Z 16008KT 17/16 A2995 RMK A01 T01710162  RH  094%=      5-min Rain = 0
KEN1 250956Z 16008KT 17/16 A2995 RMK A01 T01710161  RH  094%=      5-min Rain = 0
KEN1 250957Z 17008KT 17/16 A2995 RMK A01 T01710161  RH  094%=      5-min Rain = 0
KEN1 250958Z 17007KT 17/16 A2995 RMK A01 T01710161  RH  094%=      5-min Rain = 0
KEN1 250959Z 17008KT 17/16 A2996 RMK A01 T01710161  RH  094%=      5-min Rain = 0
KEN1 251000Z 17007KT 17/16 A2996 RMK A01 T01710161  RH  094%=      5-min Rain = 0
KEN1 251001Z 16007KT 17/16 A2996 RMK A01 T01720161  RH  094%=      5-min Rain = 0
KEN1 251002Z 16006KT 17/16 A2996 RMK A01 T01720161  RH  094%=      5-min Rain = 0
KEN1 251003Z 16007KT 17/16 A2996 RMK A01 T01720162  RH  094%=      5-min Rain = 0
KEN1 251004Z 16006KT 17/16 A2996 RMK A01 T01720162  RH  094%=      5-min Rain = 0
KEN1 251005Z 16008KT 17/16 A2996 RMK A01 T01730162  RH  093%=      5-min Rain = 0
KEN1 251006Z 16009KT 17/16 A2996 RMK A01 T01720162  RH  093%=      5-min Rain = 0
KEN1 251007Z 16008KT 17/16 A2996 RMK A01 T01730162  RH  093%=      5-min Rain = 0
KEN1 251008Z 16008KT 17/16 A2996 RMK A01 T01730162  RH  093%=      5-min Rain = 0
KEN1 251009Z 17008KT 17/16 A2996 RMK A01 T01730162  RH  093%=      5-min Rain = 0
KEN1 251010Z 16009KT 17/16 A2996 RMK A01 T01730163  RH  093%=      5-min Rain = 0
KEN1 251011Z 16009KT 18/16 A2996 RMK A01 T01750164  RH  093%=      5-min Rain = 0
KEN1 251012Z 15008KT 18/16 A2996 RMK A01 T01750163  RH  093%=      5-min Rain = 0
KEN1 251013Z 16007KT 18/16 A2996 RMK A01 T01750162  RH  092%=      5-min Rain = 0
KEN1 251014Z 15008KT 17/16 A2996 RMK A01 T01740162  RH  092%=      5-min Rain = 0
KEN1 251015Z 15008KT 17/16 A2996 RMK A01 T01740162  RH  093%=      5-min Rain = 0
KEN1 251016Z 16007KT 17/16 A2996 RMK A01 T01730162  RH  093%=      5-min Rain = 0
KEN1 251017Z 15007KT 17/16 A2996 RMK A01 T01730161  RH  093%=      5-min Rain = 0
KEN1 251018Z 14007KT 17/16 A2996 RMK A01 T01730161  RH  093%=      5-min Rain = 0
KEN1 251019Z 15007KT 17/16 A2996 RMK A01 T01720161  RH  093%=      5-min Rain = 0
KEN1 251020Z 15006KT 17/16 A2996 RMK A01 T01720161  RH  093%=      5-min Rain = 0
KEN1 251021Z 15006KT 17/16 A2996 RMK A01 T01710160  RH  093%=      5-min Rain = 0
KEN1 251022Z 16006KT 17/16 A2996 RMK A01 T01700160  RH  093%=      5-min Rain = 0
KEN1 251023Z 15007KT 17/16 A2996 RMK A01 T01700161  RH  094%=      5-min Rain = 0
KEN1 251024Z 16007KT 17/16 A2996 RMK A01 T01700161  RH  094%=      5-min Rain = 0
KEN1 251025Z 15006KT 17/16 A2996 RMK A01 T01710162  RH  094%=      5-min Rain = 0
KEN1 251026Z 15006KT 17/16 A2996 RMK A01 T01720162  RH  094%=      5-min Rain = 0
KEN1 251027Z 16005KT 17/16 A2996 RMK A01 T01720162  RH  094%=      5-min Rain = 0
KEN1 251028Z 16005KT 17/16 A2996 RMK A01 T01720162  RH  094%=      5-min Rain = 0
KEN1 251029Z 16005KT 17/16 A2996 RMK A01 T01720161  RH  094%=      5-min Rain = 0
KEN1 251030Z 15005KT 17/16 A2996 RMK A01 T01710161  RH  093%=      5-min Rain = 0
KEN1 251031Z 16005KT 17/16 A2996 RMK A01 T01700160  RH  094%=      5-min Rain = 0
KEN1 251032Z 17005KT 17/16 A2996 RMK A01 T01700160  RH  094%=      5-min Rain = 0
KEN1 251033Z 17005KT 17/16 A2996 RMK A01 T01700160  RH  094%=      5-min Rain = 0
KEN1 251034Z 16005KT 17/16 A2996 RMK A01 T01700161  RH  094%=      5-min Rain = 0
KEN1 251035Z 17005KT 17/16 A2996 RMK A01 T01700160  RH  094%=      5-min Rain = 0
KEN1 251036Z 17007KT 17/16 A2996 RMK A01 T01690160  RH  094%=      5-min Rain = 0
KEN1 251037Z 16007KT 17/16 A2996 RMK A01 T01700162  RH  095%=      5-min Rain = 0
KEN1 251038Z 16006KT 17/16 A2996 RMK A01 T01710163  RH  095%=      5-min Rain = 0
KEN1 251039Z 17007KT 17/16 A2996 RMK A01 T01720162  RH  094%=      5-min Rain = 0
KEN1 251040Z 17006KT 17/16 A2996 RMK A01 T01720162  RH  094%=      5-min Rain = 0
KEN1 251041Z 17005KT 17/16 A2996 RMK A01 T01720162  RH  094%=      5-min Rain = 0
KEN1 251042Z 18006KT 17/16 A2996 RMK A01 T01720162  RH  094%=      5-min Rain = 0
KEN1 251043Z 17008KT 17/16 A2996 RMK A01 T01710162  RH  094%=      5-min Rain = 0
KEN1 251044Z 17008KT 17/16 A2996 RMK A01 T01710163  RH  094%=      5-min Rain = 0
KEN1 251045Z 17007KT 17/16 A2996 RMK A01 T01720163  RH  094%=      5-min Rain = 0
KEN1 251046Z 17008KT 17/16 A2997 RMK A01 T01720163  RH  094%=      5-min Rain = 0
KEN1 251047Z 18008KT 17/16 A2997 RMK A01 T01720163  RH  095%=      5-min Rain = 0
KEN1 251048Z 18008KT 17/16 A2997 RMK A01 T01720164  RH  095%=      5-min Rain = 0
KEN1 251049Z 17007KT 17/16 A2997 RMK A01 T01730164  RH  095%=      5-min Rain = 0
KEN1 251050Z 17008KT 17/16 A2997 RMK A01 T01720163  RH  094%=      5-min Rain = 0
KEN1 251051Z 17008KT 17/16 A2997 RMK A01 T01720163  RH  094%=      5-min Rain = 0
KEN1 251052Z 17007KT 17/16 A2997 RMK A01 T01710163  RH  095%=      5-min Rain = 0
KEN1 251053Z 17008KT 17/16 A2997 RMK A01 T01720163  RH  095%=      5-min Rain = 0
KEN1 251054Z 17007KT 17/16 A2997 RMK A01 T01710163  RH  095%=      5-min Rain = 0
KEN1 251055Z 17007KT 17/16 A2997 RMK A01 T01710163  RH  095%=      5-min Rain = 0
KEN1 251056Z 17007KT 17/16 A2997 RMK A01 T01710163  RH  095%=      5-min Rain = 0
KEN1 251057Z 17006KT 17/16 A2997 RMK A01 T01710163  RH  095%=      5-min Rain = 0
KEN1 251058Z 16006KT 17/16 A2996 RMK A01 T01710163  RH  095%=      5-min Rain = 0
KEN1 251059Z 17006KT 17/16 A2996 RMK A01 T01710163  RH  095%=      5-min Rain = 0
KEN1 251100Z 16006KT 17/16 A2997 RMK A01 T01710163  RH  095%=      5-min Rain = 0
KEN1 251101Z 16006KT 17/16 A2997 RMK A01 T01700163  RH  095%=      5-min Rain = 0
KEN1 251102Z 16006KT 17/16 A2997 RMK A01 T01700163  RH  095%=      5-min Rain = 0
KEN1 251103Z 16006KT 17/16 A2997 RMK A01 T01700162  RH  095%=      5-min Rain = 0
KEN1 251104Z 17006KT 17/16 A2997 RMK A01 T01700162  RH  095%=      5-min Rain = 0
KEN1 251105Z 17006KT 17/16 A2997 RMK A01 T01700163  RH  095%=      5-min Rain = 0
KEN1 251106Z 17006KT 17/16 A2996 RMK A01 T01700163  RH  095%=      5-min Rain = 0
KEN1 251107Z 16006KT 17/16 A2997 RMK A01 T01710163  RH  095%=      5-min Rain = 0
KEN1 251108Z 16006KT 17/16 A2997 RMK A01 T01710164  RH  095%=      5-min Rain = 0
KEN1 251109Z 16007KT 17/16 A2997 RMK A01 T01710163  RH  095%=      5-min Rain = 0
KEN1 251110Z 17007KT 17/16 A2997 RMK A01 T01710164  RH  095%=      5-min Rain = 0
KEN1 251111Z 17009KT 17/16 A2997 RMK A01 T01710164  RH  095%=      5-min Rain = 0
KEN1 251112Z 17008KT 17/17 A2997 RMK A01 T01730166  RH  096%=      5-min Rain = 0
KEN1 251113Z 17006KT 17/17 A2997 RMK A01 T01740166  RH  095%=      5-min Rain = 0
KEN1 251114Z 17006KT 17/17 A2997 RMK A01 T01740166  RH  095%=      5-min Rain = 0
KEN1 251115Z 17008KT 17/17 A2997 RMK A01 T01740165  RH  094%=      5-min Rain = 0
KEN1 251116Z 17008KT 18/17 A2997 RMK A01 T01750166  RH  095%=      5-min Rain = 0
KEN1 251117Z 17008KT 18/17 A2997 RMK A01 T01760167  RH  095%=      5-min Rain = 0
KEN1 251118Z 17007KT 18/17 A2997 RMK A01 T01760167  RH  094%=      5-min Rain = 0
KEN1 251119Z 17005KT 18/17 A2997 RMK A01 T01760166  RH  094%=      5-min Rain = 0
KEN1 251120Z 16005KT 18/17 A2997 RMK A01 T01760166  RH  094%=      5-min Rain = 0
KEN1 251121Z 17006KT 18/17 A2997 RMK A01 T01760166  RH  094%=      5-min Rain = 0
KEN1 251122Z 17005KT 18/17 A2997 RMK A01 T01760167  RH  094%=      5-min Rain = 0
KEN1 251123Z 17006KT 18/17 A2997 RMK A01 T01770167  RH  094%=      5-min Rain = 0
KEN1 251124Z 17006KT 18/17 A2997 RMK A01 T01770168  RH  094%=      5-min Rain = 0
KEN1 251125Z 17003KT 18/17 A2997 RMK A01 T01780168  RH  094%=      5-min Rain = 0
KEN1 251126Z 16006KT 18/17 A2997 RMK A01 T01780167  RH  093%=      5-min Rain = 0
KEN1 251127Z 17005KT 18/17 A2997 RMK A01 T01780167  RH  093%=      5-min Rain = 0
KEN1 251128Z 17004KT 18/17 A2997 RMK A01 T01780167  RH  093%=      5-min Rain = 0
KEN1 251129Z 17005KT 18/17 A2997 RMK A01 T01780167  RH  093%=      5-min Rain = 0
KEN1 251130Z 17004KT 18/17 A2997 RMK A01 T01780167  RH  093%=      5-min Rain = 0
KEN1 251131Z 19005KT 18/17 A2997 RMK A01 T01780167  RH  093%=      5-min Rain = 0
KEN1 251132Z 18006KT 18/17 A2997 RMK A01 T01780168  RH  094%=      5-min Rain = 0
KEN1 251133Z 17006KT 18/17 A2997 RMK A01 T01780167  RH  094%=      5-min Rain = 0
KEN1 251134Z 18007KT 18/17 A2997 RMK A01 T01780168  RH  094%=      5-min Rain = 0
KEN1 251135Z 17006KT 18/17 A2997 RMK A01 T01770167  RH  094%=      5-min Rain = 0
KEN1 251136Z 17006KT 18/17 A2997 RMK A01 T01780167  RH  094%=      5-min Rain = 0
KEN1 251137Z 17008KT 18/17 A2997 RMK A01 T01780168  RH  094%=      5-min Rain = 0
KEN1 251138Z 17008KT 18/17 A2997 RMK A01 T01780169  RH  094%=      5-min Rain = 0
KEN1 251139Z 17008KT 18/17 A2997 RMK A01 T01790169  RH  094%=      5-min Rain = 0
KEN1 251140Z 16008KT 18/17 A2997 RMK A01 T01790169  RH  094%=      5-min Rain = 0
KEN1 251141Z 16007KT 18/17 A2997 RMK A01 T01790169  RH  094%=      5-min Rain = 0
KEN1 251142Z 16008KT 18/17 A2997 RMK A01 T01790169  RH  094%=      5-min Rain = 0
KEN1 251143Z 16007KT 18/17 A2997 RMK A01 T01790169  RH  094%=      5-min Rain = 0
KEN1 251144Z 16007KT 18/17 A2997 RMK A01 T01790169  RH  094%=      5-min Rain = 0
KEN1 251145Z 16008KT 18/17 A2997 RMK A01 T01790169  RH  094%=      5-min Rain = 0
KEN1 251146Z 16009KT 18/17 A2997 RMK A01 T01790169  RH  094%=      5-min Rain = 0
KEN1 251147Z 16007KT 18/17 A2997 RMK A01 T01790169  RH  094%=      5-min Rain = 0
KEN1 251148Z 16007KT 18/17 A2997 RMK A01 T01790169  RH  094%=      5-min Rain = 0
KEN1 251149Z 16008KT 18/17 A2997 RMK A01 T01790169  RH  094%=      5-min Rain = 0
KEN1 251150Z 16009KT 18/17 A2997 RMK A01 T01780169  RH  094%=      5-min Rain = 0
KEN1 251151Z 16009KT 18/17 A2997 RMK A01 T01780169  RH  094%=      5-min Rain = 0
KEN1 251152Z 16009KT 18/17 A2997 RMK A01 T01780169  RH  094%=      5-min Rain = 0
KEN1 251153Z 16008KT 18/17 A2997 RMK A01 T01780169  RH  094%=      5-min Rain = 0
KEN1 251154Z 15008KT 18/17 A2997 RMK A01 T01780169  RH  094%=      5-min Rain = 0
KEN1 251155Z 16008KT 18/17 A2997 RMK A01 T01780169  RH  094%=      5-min Rain = 0
KEN1 251156Z 16009KT 18/17 A2997 RMK A01 T01790169  RH  094%=      5-min Rain = 0
KEN1 251157Z 15010KT 18/17 A2997 RMK A01 T01790169  RH  094%=      5-min Rain = 0
KEN1 251158Z 15009KT 18/17 A2998 RMK A01 T01790169  RH  094%=      5-min Rain = 0
KEN1 251159Z 15008KT 18/17 A2998 RMK A01 T01800169  RH  094%=      5-min Rain = 0
KEN1 251200Z 15007KT 18/17 A2998 RMK A01 T01790169  RH  094%=      5-min Rain = 0
KEN1 251201Z 15009KT 18/17 A2998 RMK A01 T01790169  RH  094%=      5-min Rain = 0
KEN1 251202Z 15007KT 18/17 A2998 RMK A01 T01790169  RH  094%=      5-min Rain = 0
KEN1 251203Z 15006KT 18/17 A2998 RMK A01 T01790169  RH  094%=      5-min Rain = 0
KEN1 251204Z 15008KT 18/17 A2998 RMK A01 T01790169  RH  094%=      5-min Rain = 0
KEN1 251205Z 15007KT 18/17 A2998 RMK A01 T01790169  RH  094%=      5-min Rain = 0
KEN1 251206Z 14008KT 18/17 A2998 RMK A01 T01790169  RH  094%=      5-min Rain = 0
KEN1 251207Z 14007KT 18/17 A2998 RMK A01 T01790168  RH  094%=      5-min Rain = 0
KEN1 251208Z 15007KT 18/17 A2998 RMK A01 T01790168  RH  094%=      5-min Rain = 0
KEN1 251209Z 15007KT 18/17 A2998 RMK A01 T01790168  RH  094%=      5-min Rain = 0
KEN1 251210Z 15008KT 18/17 A2998 RMK A01 T01780168  RH  094%=      5-min Rain = 0
KEN1 251211Z 15008KT 18/17 A2998 RMK A01 T01790169  RH  094%=      5-min Rain = 0
KEN1 251212Z 15008KT 18/17 A2998 RMK A01 T01790169  RH  094%=      5-min Rain = 0
KEN1 251213Z 14009KT 18/17 A2998 RMK A01 T01780169  RH  094%=      5-min Rain = 0
KEN1 251214Z 15007KT 18/17 A2998 RMK A01 T01790169  RH  094%=      5-min Rain = 0
KEN1 251215Z 15008KT 18/17 A2998 RMK A01 T01790169  RH  094%=      5-min Rain = 0
KEN1 251216Z 15008KT 18/17 A2998 RMK A01 T01790169  RH  094%=      5-min Rain = 0
KEN1 251217Z 15008KT 18/17 A2998 RMK A01 T01790169  RH  094%=      5-min Rain = 0
KEN1 251218Z 16008KT 18/17 A2998 RMK A01 T01790170  RH  094%=      5-min Rain = 0
KEN1 251219Z 16008KT 18/17 A2998 RMK A01 T01790169  RH  094%=      5-min Rain = 0
KEN1 251220Z 16009KT 18/17 A2998 RMK A01 T01800170  RH  094%=      5-min Rain = 0
KEN1 251221Z 15010KT 18/17 A2998 RMK A01 T01800170  RH  094%=      5-min Rain = 0
KEN1 251222Z 15010KT 18/17 A2998 RMK A01 T01810171  RH  094%=      5-min Rain = 0
KEN1 251223Z 15009KT 18/17 A2998 RMK A01 T01810171  RH  094%=      5-min Rain = 0
KEN1 251224Z 16008KT 18/17 A2999 RMK A01 T01810171  RH  094%=      5-min Rain = 0
KEN1 251225Z 16009KT 18/17 A2999 RMK A01 T01820171  RH  093%=      5-min Rain = 0
KEN1 251226Z 16010KT 18/17 A2999 RMK A01 T01820171  RH  093%=      5-min Rain = 0
KEN1 251227Z 16009KT 18/17 A2999 RMK A01 T01830172  RH  093%=      5-min Rain = 0
KEN1 251228Z 16009KT 18/17 A2999 RMK A01 T01830172  RH  093%=      5-min Rain = 0
KEN1 251229Z 16008KT 18/17 A2999 RMK A01 T01840172  RH  093%=      5-min Rain = 0
KEN1 251230Z 16009KT 18/17 A2999 RMK A01 T01840172  RH  093%=      5-min Rain = 0
KEN1 251231Z 16008KT 18/17 A2999 RMK A01 T01840172  RH  093%=      5-min Rain = 0
KEN1 251232Z 16009KT 18/17 A2999 RMK A01 T01840172  RH  093%=      5-min Rain = 0
KEN1 251233Z 16007KT 19/17 A2999 RMK A01 T01850173  RH  093%=      5-min Rain = 0
KEN1 251234Z 16007KT 19/17 A2999 RMK A01 T01850173  RH  093%=      5-min Rain = 0
KEN1 251235Z 16008KT 19/17 A2999 RMK A01 T01850173  RH  093%=      5-min Rain = 0
KEN1 251236Z 15007KT 19/17 A2999 RMK A01 T01850173  RH  093%=      5-min Rain = 0
KEN1 251237Z 16008KT 19/17 A2999 RMK A01 T01860173  RH  092%=      5-min Rain = 0
KEN1 251238Z 16007KT 19/17 A2999 RMK A01 T01860173  RH  092%=      5-min Rain = 0
KEN1 251239Z 16007KT 19/17 A2999 RMK A01 T01870174  RH  092%=      5-min Rain = 0
KEN1 251240Z 16006KT 19/17 A2999 RMK A01 T01870174  RH  092%=      5-min Rain = 0
KEN1 251241Z 16005KT 19/17 A2999 RMK A01 T01870174  RH  092%=      5-min Rain = 0
KEN1 251242Z 15007KT 19/17 A2999 RMK A01 T01880174  RH  092%=      5-min Rain = 0
KEN1 251243Z 16005KT 19/17 A2999 RMK A01 T01890174  RH  091%=      5-min Rain = 0
KEN1 251244Z 17004KT 19/18 A2999 RMK A01 T01890175  RH  091%=      5-min Rain = 0
KEN1 251245Z 17005KT 19/18 A2999 RMK A01 T01900175  RH  091%=      5-min Rain = 0
KEN1 251246Z 17004KT 19/18 A30 RMK A01 T01910176  RH  091%=      5-min Rain = 0
KEN1 251247Z 18005KT 19/18 A30 RMK A01 T01910176  RH  091%=      5-min Rain = 0
KEN1 251248Z 18004KT 19/18 A30 RMK A01 T01920176  RH  091%=      5-min Rain = 0
KEN1 251249Z 22003KT 19/18 A30 RMK A01 T01910176  RH  091%=      5-min Rain = 0
KEN1 251250Z 20003KT 19/18 A30 RMK A01 T01910176  RH  091%=      5-min Rain = 0
KEN1 251251Z 19005KT 19/18 A30 RMK A01 T01910176  RH  091%=      5-min Rain = 0
KEN1 251252Z 18004KT 19/18 A30 RMK A01 T01920176  RH  090%=      5-min Rain = 0
KEN1 251253Z 18004KT 19/18 A30 RMK A01 T01920176  RH  091%=      5-min Rain = 0
KEN1 251254Z 19005KT 19/18 A30 RMK A01 T01920177  RH  091%=      5-min Rain = 0
KEN1 251255Z 19006KT 19/18 A30 RMK A01 T01920177  RH  091%=      5-min Rain = 0
KEN1 251256Z 19006KT 19/18 A30 RMK A01 T01920177  RH  091%=      5-min Rain = 0
KEN1 251257Z 19006KT 19/18 A30 RMK A01 T01920177  RH  091%=      5-min Rain = 0
KEN1 251258Z 19005KT 19/18 A30 RMK A01 T01910177  RH  091%=      5-min Rain = 0
KEN1 251259Z 21005KT 19/18 A30 RMK A01 T01910177  RH  091%=      5-min Rain = 0
KEN1 251300Z 20006KT 19/18 A30 RMK A01 T01910177  RH  091%=      5-min Rain = 0
KEN1 251301Z 19006KT 19/18 A30 RMK A01 T01910177  RH  091%=      5-min Rain = 0
KEN1 251302Z 19006KT 19/18 A30 RMK A01 T01910176  RH  091%=      5-min Rain = 0
KEN1 251303Z 19007KT 19/18 A30 RMK A01 T01910177  RH  091%=      5-min Rain = 0
KEN1 251304Z 19008KT 19/18 A30 RMK A01 T01910177  RH  091%=      5-min Rain = 0
KEN1 251305Z 19008KT 19/18 A30 RMK A01 T01910177  RH  091%=      5-min Rain = 0
KEN1 251306Z 18009KT 19/18 A30 RMK A01 T01920177  RH  091%=      5-min Rain = 0
KEN1 251307Z 18009KT 19/18 A30 RMK A01 T01920177  RH  091%=      5-min Rain = 0
KEN1 251308Z 18010KT 19/18 A30 RMK A01 T01920177  RH  091%=      5-min Rain = 0
KEN1 251309Z 18010KT 19/18 A30 RMK A01 T01920177  RH  091%=      5-min Rain = 0
KEN1 251310Z 18010KT 19/18 A30 RMK A01 T01930177  RH  091%=      5-min Rain = 0
KEN1 251311Z 18011KT 19/18 A30 RMK A01 T01930177  RH  091%=      5-min Rain = 0
KEN1 251312Z 18011KT 19/18 A30 RMK A01 T01930178  RH  091%=      5-min Rain = 0
KEN1 251313Z 18011KT 19/18 A30 RMK A01 T01930178  RH  091%=      5-min Rain = 0
KEN1 251314Z 18011KT 19/18 A30 RMK A01 T01940178  RH  090%=      5-min Rain = 0
KEN1 251315Z 18011KT 19/18 A30 RMK A01 T01940177  RH  090%=      5-min Rain = 0
KEN1 251316Z 17013KT 19/18 A30 RMK A01 T01940177  RH  090%=      5-min Rain = 0
KEN1 251317Z 18014KT 19/18 A30 RMK A01 T01940177  RH  090%=      5-min Rain = 0
KEN1 251318Z 18013KT 20/18 A3001 RMK A01 T01950177  RH  089%=      5-min Rain = 0
KEN1 251319Z 18012KT 20/18 A3001 RMK A01 T01960178  RH  089%=      5-min Rain = 0
KEN1 251320Z 18013KT 20/18 A3001 RMK A01 T01960178  RH  089%=      5-min Rain = 0
KEN1 251321Z 18013KT 20/18 A3001 RMK A01 T01960178  RH  089%=      5-min Rain = 0
KEN1 251322Z 18011KT 20/18 A3001 RMK A01 T01970178  RH  089%=      5-min Rain = 0
KEN1 251323Z 18012KT 20/18 A3001 RMK A01 T01970178  RH  089%=      5-min Rain = 0
KEN1 251324Z 18011KT 20/18 A3001 RMK A01 T01970179  RH  089%=      5-min Rain = 0
KEN1 251325Z 18011KT 20/18 A3001 RMK A01 T01970179  RH  089%=      5-min Rain = 0
KEN1 251326Z 18011KT 20/18 A3001 RMK A01 T01980179  RH  089%=      5-min Rain = 0
KEN1 251327Z 18012KT 20/18 A3001 RMK A01 T01970178  RH  088%=      5-min Rain = 0
KEN1 251328Z 18011KT 20/18 A3001 RMK A01 T01980178  RH  088%=      5-min Rain = 0
KEN1 251329Z 18010KT 20/18 A3001 RMK A01 T01980179  RH  089%=      5-min Rain = 0
KEN1 251330Z 18010KT 20/18 A3001 RMK A01 T01990179  RH  088%=      5-min Rain = 0
KEN1 251331Z 17010KT 20/18 A3001 RMK A01 T01990179  RH  088%=      5-min Rain = 0
KEN1 251332Z 18011KT 20/18 A3001 RMK A01 T01990179  RH  088%=      5-min Rain = 0
KEN1 251333Z 18012KT 20/18 A3001 RMK A01 T01990179  RH  088%=      5-min Rain = 0
KEN1 251334Z 19012KT 20/18 A3001 RMK A01 T01990178  RH  088%=      5-min Rain = 0
KEN1 251335Z 18010KT 20/18 A3001 RMK A01 T01990179  RH  088%=      5-min Rain = 0
KEN1 251336Z 18011KT 20/18 A3001 RMK A01 T01990179  RH  088%=      5-min Rain = 0
KEN1 251337Z 18011KT 20/18 A3001 RMK A01 T02000178  RH  087%=      5-min Rain = 0
KEN1 251338Z 17008KT 20/18 A3001 RMK A01 T02000180  RH  088%=      5-min Rain = 0
KEN1 251339Z 18009KT 20/18 A3001 RMK A01 T02010180  RH  087%=      5-min Rain = 0
KEN1 251340Z 17009KT 20/18 A3001 RMK A01 T02020181  RH  087%=      5-min Rain = 0
KEN1 251341Z 17011KT 20/18 A3001 RMK A01 T02030179  RH  086%=      5-min Rain = 0
KEN1 251342Z 18009KT 20/18 A3001 RMK A01 T02040180  RH  086%=      5-min Rain = 0
KEN1 251343Z 17010KT 20/18 A3001 RMK A01 T02030179  RH  086%=      5-min Rain = 0
KEN1 251344Z 17010KT 20/18 A3002 RMK A01 T02030179  RH  086%=      5-min Rain = 0
KEN1 251345Z 18009KT 20/18 A3002 RMK A01 T02040179  RH  086%=      5-min Rain = 0
KEN1 251346Z 18009KT 20/18 A3002 RMK A01 T02040180  RH  086%=      5-min Rain = 0
KEN1 251347Z 18010KT 20/18 A3002 RMK A01 T02040179  RH  086%=      5-min Rain = 0
KEN1 251348Z 18009KT 20/18 A3002 RMK A01 T02040179  RH  086%=      5-min Rain = 0
KEN1 251349Z 18008KT 20/18 A3002 RMK A01 T02040179  RH  085%=      5-min Rain = 0
KEN1 251350Z 17008KT 20/18 A3002 RMK A01 T02040179  RH  086%=      5-min Rain = 0
KEN1 251351Z 17007KT 20/18 A3002 RMK A01 T02040179  RH  085%=      5-min Rain = 0
KEN1 251352Z 18008KT 20/18 A3002 RMK A01 T02040179  RH  086%=      5-min Rain = 0
KEN1 251353Z 18008KT 20/18 A3002 RMK A01 T02040180  RH  086%=      5-min Rain = 0
KEN1 251354Z 17009G16KT 21/18 A3002 RMK A01 T02050180  RH  085%=      5-min Rain = 0
KEN1 251355Z 18012KT 21/18 A3002 RMK A01 T02060178  RH  084%=      5-min Rain = 0
KEN1 251356Z 18009KT 21/18 A3002 RMK A01 T02060178  RH  084%=      5-min Rain = 0
KEN1 251357Z 18008KT 21/18 A3002 RMK A01 T02070179  RH  084%=      5-min Rain = 0
KEN1 251358Z 18010KT 21/18 A3002 RMK A01 T02070179  RH  084%=      5-min Rain = 0
KEN1 251359Z 19011KT 21/18 A3002 RMK A01 T02080179  RH  083%=      5-min Rain = 0
KEN1 251400Z 19015KT 21/18 A3002 RMK A01 T02080177  RH  082%=      5-min Rain = 0
KEN1 251401Z 19014KT 21/18 A3002 RMK A01 T02080175  RH  081%=      5-min Rain = 0
KEN1 251402Z 19012G17KT 21/18 A3002 RMK A01 T02090176  RH  081%=      5-min Rain = 0
KEN1 251403Z 19014KT 21/18 A3002 RMK A01 T02100176  RH  081%=      5-min Rain = 0
KEN1 251404Z 19013KT 21/18 A3002 RMK A01 T02100176  RH  081%=      5-min Rain = 0
KEN1 251405Z 19014KT 21/18 A3002 RMK A01 T02100175  RH  081%=      5-min Rain = 0
KEN1 251406Z 18017KT 21/18 A3002 RMK A01 T02100175  RH  080%=      5-min Rain = 0
KEN1 251407Z 19014KT 21/17 A3002 RMK A01 T02090174  RH  080%=      5-min Rain = 0
KEN1 251408Z 19013KT 21/18 A3002 RMK A01 T02090175  RH  081%=      5-min Rain = 0
KEN1 251409Z 19014KT 21/18 A3002 RMK A01 T02090175  RH  081%=      5-min Rain = 0
KEN1 251410Z 19013KT 21/18 A3002 RMK A01 T02100175  RH  081%=      5-min Rain = 0
KEN1 251411Z 20009KT 21/18 A3002 RMK A01 T02100176  RH  081%=      5-min Rain = 0
KEN1 251412Z 19011KT 21/18 A3002 RMK A01 T02110176  RH  081%=      5-min Rain = 0
KEN1 251413Z 19009KT 21/18 A3002 RMK A01 T02120176  RH  080%=      5-min Rain = 0
KEN1 251414Z 19008KT 21/18 A3002 RMK A01 T02120177  RH  080%=      5-min Rain = 0
KEN1 251415Z 18007KT 21/18 A3002 RMK A01 T02130178  RH  080%=      5-min Rain = 0
KEN1 251416Z 18011KT 21/18 A3002 RMK A01 T02140178  RH  080%=      5-min Rain = 0
KEN1 251417Z 18011KT 22/18 A3002 RMK A01 T02150178  RH  080%=      5-min Rain = 0
KEN1 251418Z 16014KT 22/18 A3002 RMK A01 T02150177  RH  079%=      5-min Rain = 0
KEN1 251419Z 17011KT 21/18 A3002 RMK A01 T02140175  RH  078%=      5-min Rain = 0
KEN1 251420Z 18011KT 21/18 A3002 RMK A01 T02140176  RH  079%=      5-min Rain = 0
KEN1 251421Z 18013KT 21/18 A3002 RMK A01 T02130176  RH  079%=      5-min Rain = 0
KEN1 251422Z 18011KT 21/18 A3002 RMK A01 T02120175  RH  079%=      5-min Rain = 0
KEN1 251423Z 18010KT 21/18 A3002 RMK A01 T02120176  RH  080%=      5-min Rain = 0
KEN1 251424Z 18011KT 21/18 A3002 RMK A01 T02120175  RH  080%=      5-min Rain = 0
KEN1 251425Z 18013KT 21/17 A3002 RMK A01 T02120174  RH  079%=      5-min Rain = 0
KEN1 251426Z 18010KT 21/17 A3002 RMK A01 T02120174  RH  079%=      5-min Rain = 0
KEN1 251427Z 18012KT 21/18 A3002 RMK A01 T02130176  RH  080%=      5-min Rain = 0
KEN1 251428Z 17013KT 22/17 A3002 RMK A01 T02150174  RH  078%=      5-min Rain = 0
KEN1 251429Z 17013KT 22/18 A3002 RMK A01 T02150175  RH  078%=      5-min Rain = 0
KEN1 251430Z 18012KT 22/18 A3002 RMK A01 T02150175  RH  078%=      5-min Rain = 0
KEN1 251431Z 19012KT 22/17 A3002 RMK A01 T02150174  RH  077%=      5-min Rain = 0
KEN1 251432Z 17011KT 22/17 A3002 RMK A01 T02150174  RH  078%=      5-min Rain = 0
KEN1 251433Z 19011KT 21/17 A3002 RMK A01 T02140174  RH  078%=      5-min Rain = 0
KEN1 251434Z 19009KT 21/18 A3002 RMK A01 T02140175  RH  078%=      5-min Rain = 0
KEN1 251435Z 19013KT 21/17 A3002 RMK A01 T02140173  RH  077%=      5-min Rain = 0
KEN1 251436Z 19011KT 21/17 A3002 RMK A01 T02140172  RH  077%=      5-min Rain = 0
KEN1 251437Z 18011KT 21/17 A3002 RMK A01 T02140173  RH  077%=      5-min Rain = 0
KEN1 251438Z 19009KT 22/17 A3002 RMK A01 T02150174  RH  077%=      5-min Rain = 0
KEN1 251439Z 18010KT 22/17 A3002 RMK A01 T02160173  RH  076%=      5-min Rain = 0
KEN1 251440Z 18012KT 22/17 A3002 RMK A01 T02170173  RH  076%=      5-min Rain = 0
KEN1 251441Z 19010KT 22/17 A3003 RMK A01 T02170173  RH  076%=      5-min Rain = 0
KEN1 251442Z 19009KT 22/17 A3002 RMK A01 T02160174  RH  077%=      5-min Rain = 0
KEN1 251443Z 18011G16KT 22/17 A3002 RMK A01 T02160172  RH  076%=      5-min Rain = 0
KEN1 251444Z 19010KT 22/17 A3002 RMK A01 T02170171  RH  075%=      5-min Rain = 0
KEN1 251445Z 18011KT 22/17 A3002 RMK A01 T02170172  RH  075%=      5-min Rain = 0
KEN1 251446Z 19012KT 22/17 A3002 RMK A01 T02180171  RH  075%=      5-min Rain = 0
KEN1 251447Z 19011KT 22/17 A3002 RMK A01 T02180171  RH  075%=      5-min Rain = 0
KEN1 251448Z 20013KT 22/17 A3002 RMK A01 T02180172  RH  075%=      5-min Rain = 0
KEN1 251449Z 20012KT 22/17 A3002 RMK A01 T02180172  RH  075%=      5-min Rain = 0
KEN1 251450Z 21010KT 22/17 A3002 RMK A01 T02170171  RH  075%=      5-min Rain = 0
KEN1 251451Z 20008KT 22/17 A3002 RMK A01 T02170172  RH  076%=      5-min Rain = 0
KEN1 251452Z 18008KT 22/17 A3002 RMK A01 T02180174  RH  076%=      5-min Rain = 0
KEN1 251453Z 18009KT 22/17 A3002 RMK A01 T02180172  RH  075%=      5-min Rain = 0
KEN1 251454Z 18008KT 22/17 A3002 RMK A01 T02190172  RH  075%=      5-min Rain = 0
KEN1 251455Z 18010KT 22/17 A3002 RMK A01 T02190173  RH  075%=      5-min Rain = 0
KEN1 251456Z 18011KT 22/17 A3002 RMK A01 T02200170  RH  073%=      5-min Rain = 0
KEN1 251457Z 17009KT 22/17 A3002 RMK A01 T02200171  RH  074%=      5-min Rain = 0
KEN1 251458Z 18008KT 22/17 A3002 RMK A01 T02210172  RH  073%=      5-min Rain = 0
KEN1 251459Z 19010KT 22/17 A3002 RMK A01 T02220173  RH  074%=      5-min Rain = 0
KEN1 251500Z 19012KT 22/17 A3002 RMK A01 T02220171  RH  073%=      5-min Rain = 0
KEN1 251501Z 18012KT 22/17 A3002 RMK A01 T02210171  RH  073%=      5-min Rain = 0
KEN1 251502Z 19010KT 22/17 A3002 RMK A01 T02210170  RH  073%=      5-min Rain = 0
KEN1 251503Z 19012KT 22/17 A3002 RMK A01 T02220171  RH  073%=      5-min Rain = 0
KEN1 251504Z 17009KT 22/17 A3002 RMK A01 T02230172  RH  073%=      5-min Rain = 0
KEN1 251505Z 19007KT 22/17 A3002 RMK A01 T02230172  RH  073%=      5-min Rain = 0
KEN1 251506Z 20011KT 23/17 A3002 RMK A01 T02250174  RH  073%=      5-min Rain = 0
KEN1 251507Z 20011KT 23/17 A3002 RMK A01 T02250174  RH  073%=      5-min Rain = 0
KEN1 251508Z 19012KT 23/17 A3002 RMK A01 T02250173  RH  072%=      5-min Rain = 0
KEN1 251509Z 19016KT 23/17 A3002 RMK A01 T02250172  RH  072%=      5-min Rain = 0
KEN1 251510Z 18013G18KT 23/17 A3002 RMK A01 T02250172  RH  072%=      5-min Rain = 0
KEN1 251511Z 17013KT 23/17 A3002 RMK A01 T02250170  RH  071%=      5-min Rain = 0
KEN1 251512Z 18013KT 23/17 A3002 RMK A01 T02250169  RH  071%=      5-min Rain = 0
KEN1 251513Z 18012KT 22/17 A3002 RMK A01 T02240169  RH  071%=      5-min Rain = 0
KEN1 251514Z 18012KT 23/17 A3002 RMK A01 T02250168  RH  070%=      5-min Rain = 0
KEN1 251515Z 20014KT 23/17 A3002 RMK A01 T02250169  RH  070%=      5-min Rain = 0
KEN1 251516Z 19014KT 23/17 A3002 RMK A01 T02250169  RH  070%=      5-min Rain = 0
KEN1 251517Z 19014KT 23/17 A3002 RMK A01 T02250170  RH  071%=      5-min Rain = 0
KEN1 251518Z 18013KT 23/17 A3002 RMK A01 T02250169  RH  070%=      5-min Rain = 0
KEN1 251519Z 18016KT 23/17 A3002 RMK A01 T02250169  RH  070%=      5-min Rain = 0
KEN1 251520Z 18014KT 23/17 A3002 RMK A01 T02250168  RH  070%=      5-min Rain = 0
KEN1 251521Z 17014KT 23/17 A3002 RMK A01 T02290172  RH  070%=      5-min Rain = 0
KEN1 251522Z 17014KT 23/17 A3002 RMK A01 T02300174  RH  070%=      5-min Rain = 0
KEN1 251523Z 17014KT 23/18 A3002 RMK A01 T02310175  RH  071%=      5-min Rain = 0
KEN1 251524Z 16015KT 23/17 A3002 RMK A01 T02330174  RH  070%=      5-min Rain = 0
KEN1 251525Z 16016KT 23/17 A3002 RMK A01 T02330174  RH  070%=      5-min Rain = 0
KEN1 251526Z 16015KT 23/17 A3002 RMK A01 T02310173  RH  070%=      5-min Rain = 0
KEN1 251527Z 16015KT 23/17 A3002 RMK A01 T02290173  RH  070%=      5-min Rain = 0
KEN1 251528Z 18013KT 23/17 A3002 RMK A01 T02280172  RH  071%=      5-min Rain = 0
KEN1 251529Z 17014KT 23/17 A3002 RMK A01 T02290174  RH  071%=      5-min Rain = 0
KEN1 251530Z 16015KT 23/17 A3002 RMK A01 T02300172  RH  070%=      5-min Rain = 0
KEN1 251531Z 17015KT 23/17 A3002 RMK A01 T02300172  RH  070%=      5-min Rain = 0
KEN1 251532Z 18015KT 23/17 A3002 RMK A01 T02290172  RH  070%=      5-min Rain = 0
KEN1 251533Z 18013KT 23/17 A3002 RMK A01 T02290171  RH  070%=      5-min Rain = 0
KEN1 251534Z 18013KT 23/17 A3002 RMK A01 T02280171  RH  070%=      5-min Rain = 0
KEN1 251535Z 17012KT 23/17 A3002 RMK A01 T02270172  RH  071%=      5-min Rain = 0
KEN1 251536Z 17017KT 23/17 A3002 RMK A01 T02270171  RH  071%=      5-min Rain = 0
KEN1 251537Z 17020KT 23/17 A3002 RMK A01 T02270169  RH  069%=      5-min Rain = 0
KEN1 251538Z 17017KT 23/17 A3002 RMK A01 T02270168  RH  069%=      5-min Rain = 0
KEN1 251539Z 17014KT 23/17 A3002 RMK A01 T02270169  RH  070%=      5-min Rain = 0
KEN1 251540Z 17013KT 23/17 A3002 RMK A01 T02280170  RH  070%=      5-min Rain = 0
KEN1 251541Z 17014KT 23/17 A3002 RMK A01 T02290170  RH  069%=      5-min Rain = 0
KEN1 251542Z 17013KT 23/17 A3002 RMK A01 T02290170  RH  070%=      5-min Rain = 0
KEN1 251543Z 17013KT 23/17 A3002 RMK A01 T02280171  RH  070%=      5-min Rain = 0
KEN1 251544Z 17014KT 23/17 A3002 RMK A01 T02290172  RH  070%=      5-min Rain = 0
KEN1 251545Z 17015KT 23/17 A3002 RMK A01 T02280171  RH  070%=      5-min Rain = 0
KEN1 251546Z 17014KT 23/17 A3002 RMK A01 T02280172  RH  071%=      5-min Rain = 0
KEN1 251547Z 17015KT 23/17 A3002 RMK A01 T02280171  RH  070%=      5-min Rain = 0
KEN1 251548Z 18015KT 23/17 A3002 RMK A01 T02280170  RH  069%=      5-min Rain = 0
KEN1 251549Z 18015KT 23/17 A3002 RMK A01 T02290170  RH  069%=      5-min Rain = 0
KEN1 251550Z 17015KT 23/17 A3001 RMK A01 T02300168  RH  068%=      5-min Rain = 0
KEN1 251551Z 18014KT 23/17 A3002 RMK A01 T02320170  RH  068%=      5-min Rain = 0
KEN1 251552Z 19016KT 23/17 A3002 RMK A01 T02340170  RH  067%=      5-min Rain = 0
KEN1 251553Z 18015KT 23/17 A3002 RMK A01 T02330168  RH  067%=      5-min Rain = 0
KEN1 251554Z 18017KT 23/17 A3002 RMK A01 T02310168  RH  068%=      5-min Rain = 0
KEN1 251555Z 18014KT 23/17 A3002 RMK A01 T02290168  RH  068%=      5-min Rain = 0
KEN1 251556Z 18017KT 23/17 A3002 RMK A01 T02290168  RH  068%=      5-min Rain = 0
KEN1 251557Z 18016KT 23/17 A3002 RMK A01 T02300167  RH  068%=      5-min Rain = 0
KEN1 251558Z 18015KT 23/17 A3002 RMK A01 T02290167  RH  068%=      5-min Rain = 0
KEN1 251559Z 18013KT 23/17 A3002 RMK A01 T02290167  RH  068%=      5-min Rain = 0
KEN1 251600Z 18016KT 23/17 A3002 RMK A01 T02300168  RH  068%=      5-min Rain = 0
KEN1 251601Z 18016KT 23/17 A3002 RMK A01 T02310166  RH  067%=      5-min Rain = 0
KEN1 251602Z 18016KT 23/17 A3002 RMK A01 T02320167  RH  067%=      5-min Rain = 0
KEN1 251603Z 18018KT 23/17 A3002 RMK A01 T02340167  RH  066%=      5-min Rain = 0
KEN1 251604Z 18015KT 23/17 A3002 RMK A01 T02320166  RH  066%=      5-min Rain = 0
KEN1 251605Z 18015KT 23/17 A3002 RMK A01 T02310167  RH  067%=      5-min Rain = 0
KEN1 251606Z 18013KT 23/17 A3002 RMK A01 T02320168  RH  067%=      5-min Rain = 0
KEN1 251607Z 18012KT 23/17 A3002 RMK A01 T02310166  RH  067%=      5-min Rain = 0
KEN1 251608Z 17014KT 23/17 A3002 RMK A01 T02300167  RH  068%=      5-min Rain = 0
KEN1 251609Z 16014KT 23/17 A3002 RMK A01 T02300167  RH  068%=      5-min Rain = 0
KEN1 251610Z 17015KT 23/17 A3002 RMK A01 T02300166  RH  067%=      5-min Rain = 0
KEN1 251611Z 17014KT 23/17 A3002 RMK A01 T02310166  RH  067%=      5-min Rain = 0
KEN1 251612Z 18012KT 23/17 A3002 RMK A01 T02310167  RH  067%=      5-min Rain = 0
KEN1 251613Z 18012KT 23/17 A3002 RMK A01 T02320169  RH  068%=      5-min Rain = 0
KEN1 251614Z 17012KT 23/17 A3002 RMK A01 T02320167  RH  067%=      5-min Rain = 0
KEN1 251615Z 16013KT 23/17 A3002 RMK A01 T02330167  RH  066%=      5-min Rain = 0
KEN1 251616Z 18012KT 23/17 A3002 RMK A01 T02330168  RH  067%=      5-min Rain = 0
KEN1 251617Z 18013KT 23/17 A3002 RMK A01 T02340167  RH  066%=      5-min Rain = 0
KEN1 251618Z 18014KT 23/17 A3002 RMK A01 T02340166  RH  066%=      5-min Rain = 0
KEN1 251619Z 18015KT 24/17 A3002 RMK A01 T02350166  RH  065%=      5-min Rain = 0
KEN1 251620Z 17014KT 23/17 A3002 RMK A01 T02340166  RH  066%=      5-min Rain = 0
KEN1 251621Z 18013KT 23/17 A3002 RMK A01 T02340167  RH  066%=      5-min Rain = 0
KEN1 251622Z 18012KT 23/17 A3002 RMK A01 T02340167  RH  066%=      5-min Rain = 0
KEN1 251623Z 17010KT 23/17 A3002 RMK A01 T02340167  RH  066%=      5-min Rain = 0
KEN1 251624Z 18014KT 24/17 A3002 RMK A01 T02350167  RH  066%=      5-min Rain = 0
KEN1 251625Z 20012KT 24/17 A3002 RMK A01 T02360167  RH  065%=      5-min Rain = 0
KEN1 251626Z 21010KT 24/17 A3002 RMK A01 T02360167  RH  065%=      5-min Rain = 0
KEN1 251627Z 20010KT 24/17 A3002 RMK A01 T02360168  RH  066%=      5-min Rain = 0
KEN1 251628Z 20011KT 24/17 A3002 RMK A01 T02360168  RH  065%=      5-min Rain = 0
KEN1 251629Z 21014KT 24/17 A3002 RMK A01 T02360166  RH  065%=      5-min Rain = 0
KEN1 251630Z 21012KT 24/17 A3002 RMK A01 T02360165  RH  064%=      5-min Rain = 0
KEN1 251631Z 21012KT 24/17 A3002 RMK A01 T02370167  RH  065%=      5-min Rain = 0
KEN1 251632Z 20013KT 24/17 A3002 RMK A01 T02380166  RH  064%=      5-min Rain = 0
KEN1 251633Z 18011KT 24/17 A3002 RMK A01 T02380166  RH  064%=      5-min Rain = 0
KEN1 251634Z 18011KT 24/17 A3002 RMK A01 T02380165  RH  063%=      5-min Rain = 0
KEN1 251635Z 19010KT 24/16 A3002 RMK A01 T02390163  RH  063%=      5-min Rain = 0
KEN1 251636Z 18011KT 24/16 A3002 RMK A01 T02400164  RH  063%=      5-min Rain = 0
KEN1 251637Z 18012KT 24/16 A3002 RMK A01 T02410163  RH  062%=      5-min Rain = 0
KEN1 251638Z 18011KT 24/16 A3002 RMK A01 T02410164  RH  062%=      5-min Rain = 0
KEN1 251639Z 18012KT 24/16 A3002 RMK A01 T02410164  RH  062%=      5-min Rain = 0
KEN1 251640Z 20011KT 24/17 A3002 RMK A01 T02420167  RH  063%=      5-min Rain = 0
KEN1 251641Z 21010KT 24/17 A3002 RMK A01 T02430168  RH  063%=      5-min Rain = 0
KEN1 251642Z 20009KT 24/16 A3002 RMK A01 T02440164  RH  061%=      5-min Rain = 0
KEN1 251643Z 20007KT 25/17 A3002 RMK A01 T02450166  RH  061%=      5-min Rain = 0
KEN1 251644Z 20013KT 25/17 A3002 RMK A01 T02460165  RH  060%=      5-min Rain = 0
KEN1 251645Z 19012KT 25/17 A3002 RMK A01 T02470165  RH  060%=      5-min Rain = 0
KEN1 251646Z 19013KT 25/17 A3002 RMK A01 T02480168  RH  061%=      5-min Rain = 0
KEN1 251647Z 19010KT 25/17 A3002 RMK A01 T02480168  RH  061%=      5-min Rain = 0
KEN1 251648Z 19012KT 25/17 A3002 RMK A01 T02480166  RH  060%=      5-min Rain = 0
KEN1 251649Z 18011KT 25/17 A3002 RMK A01 T02470166  RH  061%=      5-min Rain = 0
KEN1 251650Z 19008KT 25/17 A3001 RMK A01 T02470165  RH  060%=      5-min Rain = 0
KEN1 251651Z 19009KT 25/17 A3001 RMK A01 T02490168  RH  061%=      5-min Rain = 0
KEN1 251652Z 16008KT 25/17 A3001 RMK A01 T02520166  RH  059%=      5-min Rain = 0
KEN1 251653Z 17010KT 25/17 A3001 RMK A01 T02530165  RH  058%=      5-min Rain = 0
KEN1 251654Z 18013KT 25/16 A3001 RMK A01 T02540164  RH  057%=      5-min Rain = 0
KEN1 251655Z 18013KT 25/16 A3001 RMK A01 T02540162  RH  057%=      5-min Rain = 0
KEN1 251656Z 17011KT 25/16 A3001 RMK A01 T02530162  RH  057%=      5-min Rain = 0
KEN1 251657Z 18011KT 26/16 A3001 RMK A01 T02560163  RH  057%=      5-min Rain = 0
KEN1 251658Z 18012KT 26/16 A3001 RMK A01 T02560164  RH  057%=      5-min Rain = 0
KEN1 251659Z 17014KT 26/16 A3001 RMK A01 T02570163  RH  056%=      5-min Rain = 0
KEN1 251700Z 18011KT 26/16 A3001 RMK A01 T02560162  RH  056%=      5-min Rain = 0
KEN1 251701Z 19009KT 26/16 A3001 RMK A01 T02560164  RH  057%=      5-min Rain = 0
KEN1 251702Z 19013KT 26/16 A3001 RMK A01 T02560162  RH  056%=      5-min Rain = 0
KEN1 251703Z 17013KT 26/16 A3001 RMK A01 T02560161  RH  055%=      5-min Rain = 0
KEN1 251704Z 17013KT 26/16 A3001 RMK A01 T02570159  RH  055%=      5-min Rain = 0
KEN1 251705Z 18013KT 26/16 A3001 RMK A01 T02570160  RH  055%=      5-min Rain = 0
KEN1 251706Z 19013KT 26/16 A3001 RMK A01 T02580160  RH  055%=      5-min Rain = 0
KEN1 251707Z 18014KT 26/16 A3001 RMK A01 T02590159  RH  054%=      5-min Rain = 0
KEN1 251708Z 18016KT 26/16 A3001 RMK A01 T02570158  RH  054%=      5-min Rain = 0
KEN1 251709Z 18014KT 26/16 A3001 RMK A01 T02560158  RH  055%=      5-min Rain = 0
KEN1 251710Z 17014KT 26/16 A3001 RMK A01 T02560160  RH  056%=      5-min Rain = 0
KEN1 251711Z 18016KT 26/16 A3001 RMK A01 T02570157  RH  054%=      5-min Rain = 0
KEN1 251712Z 18016KT 26/16 A3001 RMK A01 T02560158  RH  054%=      5-min Rain = 0
KEN1 251713Z 18014KT 26/16 A30 RMK A01 T02570159  RH  055%=      5-min Rain = 0
KEN1 251714Z 18015KT 26/16 A30 RMK A01 T02580159  RH  054%=      5-min Rain = 0
KEN1 251715Z 17015KT 26/16 A30 RMK A01 T02590160  RH  054%=      5-min Rain = 0
KEN1 251716Z 18015KT 26/16 A30 RMK A01 T02610162  RH  054%=      5-min Rain = 0
KEN1 251717Z 19013KT 26/16 A30 RMK A01 T02620161  RH  054%=      5-min Rain = 0
KEN1 251718Z 19012KT 26/16 A30 RMK A01 T02630163  RH  054%=      5-min Rain = 0
KEN1 251719Z 18013KT 27/16 A30 RMK A01 T02650163  RH  054%=      5-min Rain = 0
KEN1 251720Z 17014KT 26/16 A30 RMK A01 T02640162  RH  053%=      5-min Rain = 0
KEN1 251721Z 17015KT 26/16 A30 RMK A01 T02630159  RH  053%=      5-min Rain = 0
KEN1 251722Z 18012KT 26/16 A30 RMK A01 T02600160  RH  054%=      5-min Rain = 0
KEN1 251723Z 20013KT 26/16 A30 RMK A01 T02610161  RH  054%=      5-min Rain = 0
KEN1 251724Z 19013KT 26/16 A3001 RMK A01 T02610159  RH  053%=      5-min Rain = 0
KEN1 251725Z 19012KT 26/16 A3001 RMK A01 T02600160  RH  054%=      5-min Rain = 0
KEN1 251726Z 18012KT 26/16 A3001 RMK A01 T02600161  RH  054%=      5-min Rain = 0
KEN1 251727Z 18016KT 26/16 A30 RMK A01 T02620159  RH  053%=      5-min Rain = 0
KEN1 251728Z 18012KT 26/16 A30 RMK A01 T02610159  RH  053%=      5-min Rain = 0
KEN1 251729Z 17012KT 26/16 A30 RMK A01 T02600159  RH  054%=      5-min Rain = 0
KEN1 251730Z 17013KT 26/16 A30 RMK A01 T02610158  RH  053%=      5-min Rain = 0
KEN1 251731Z 18012KT 26/16 A30 RMK A01 T02590158  RH  054%=      5-min Rain = 0
KEN1 251732Z 19011G16KT 26/16 A30 RMK A01 T02580158  RH  054%=      5-min Rain = 0
KEN1 251733Z 19013KT 26/16 A30 RMK A01 T02580156  RH  053%=      5-min Rain = 0
KEN1 251734Z 19013KT 26/16 A30 RMK A01 T02560158  RH  054%=      5-min Rain = 0
KEN1 251735Z 18013KT 26/16 A30 RMK A01 T02550157  RH  055%=      5-min Rain = 0
KEN1 251736Z 18014KT 26/16 A30 RMK A01 T02550156  RH  054%=      5-min Rain = 0
KEN1 251737Z 19012KT 26/16 A30 RMK A01 T02560157  RH  054%=      5-min Rain = 0
KEN1 251738Z 18014KT 26/16 A30 RMK A01 T02550156  RH  054%=      5-min Rain = 0
KEN1 251739Z 18014KT 26/15 A30 RMK A01 T02550154  RH  054%=      5-min Rain = 0
KEN1 251740Z 19012KT 26/15 A30 RMK A01 T02550153  RH  053%=      5-min Rain = 0
KEN1 251741Z 19009KT 26/16 A30 RMK A01 T02550155  RH  054%=      5-min Rain = 0
KEN1 251742Z 19010KT 26/16 A30 RMK A01 T02550158  RH  055%=      5-min Rain = 0
KEN1 251743Z 19011KT 26/16 A30 RMK A01 T02560156  RH  054%=      5-min Rain = 0
KEN1 251744Z 19010KT 26/16 A2999 RMK A01 T02550156  RH  054%=      5-min Rain = 0
KEN1 251745Z 18010KT 26/16 A2999 RMK A01 T02550156  RH  054%=      5-min Rain = 0
KEN1 251746Z 16009KT 26/16 A2999 RMK A01 T02550156  RH  054%=      5-min Rain = 0
KEN1 251747Z 17010KT 26/15 A2999 RMK A01 T02560152  RH  052%=      5-min Rain = 0
KEN1 251748Z 17012KT 26/15 A2999 RMK A01 T02570151  RH  052%=      5-min Rain = 0
KEN1 251749Z 18011KT 26/15 A2999 RMK A01 T02570149  RH  051%=      5-min Rain = 0
KEN1 251750Z 18011KT 26/15 A2999 RMK A01 T02580148  RH  051%=      5-min Rain = 0
KEN1 251751Z 17010KT 26/15 A2999 RMK A01 T02580147  RH  051%=      5-min Rain = 0
KEN1 251752Z 18011KT 26/15 A2998 RMK A01 T02580151  RH  051%=      5-min Rain = 0
KEN1 251753Z 17009KT 26/15 A2998 RMK A01 T02590152  RH  052%=      5-min Rain = 0
KEN1 251754Z 16009KT 26/16 A2998 RMK A01 T02600155  RH  052%=      5-min Rain = 0
KEN1 251755Z 15008KT 26/16 A2998 RMK A01 T02620157  RH  052%=      5-min Rain = 0
KEN1 251756Z 17008KT 26/16 A2998 RMK A01 T02630157  RH  052%=      5-min Rain = 0
KEN1 251757Z 17009KT 26/15 A2998 RMK A01 T02630153  RH  051%=      5-min Rain = 0
KEN1 251758Z 18008KT 26/16 A2998 RMK A01 T02630155  RH  051%=      5-min Rain = 0
KEN1 251759Z 19007KT 26/16 A2998 RMK A01 T02640158  RH  052%=      5-min Rain = 0
KEN1 251800Z 18008KT 27/16 A2997 RMK A01 T02660155  RH  050%=      5-min Rain = 0
KEN1 251801Z 20008KT 27/16 A2997 RMK A01 T02650155  RH  051%=      5-min Rain = 0
KEN1 251802Z 19008KT 27/16 A2997 RMK A01 T02650155  RH  051%=      5-min Rain = 0
KEN1 251803Z 18009KT 27/15 A2997 RMK A01 T02650153  RH  050%=      5-min Rain = 0
KEN1 251804Z 18008KT 27/15 A2997 RMK A01 T02660151  RH  049%=      5-min Rain = 0
KEN1 251805Z 18009KT 27/15 A2997 RMK A01 T02650151  RH  050%=      5-min Rain = 0
KEN1 251806Z 19007KT 27/15 A2997 RMK A01 T02650150  RH  049%=      5-min Rain = 0
KEN1 251807Z 20006KT 26/15 A2997 RMK A01 T02640148  RH  049%=      5-min Rain = 0
KEN1 251808Z 21007KT 26/15 A2997 RMK A01 T02620148  RH  049%=      5-min Rain = 0
KEN1 251809Z 20007KT 26/15 A2997 RMK A01 T02610149  RH  050%=      5-min Rain = 0
KEN1 251810Z 18005KT 26/15 A2997 RMK A01 T02610150  RH  051%=      5-min Rain = 0
KEN1 251811Z 17005KT 26/14 A2997 RMK A01 T02610143  RH  048%=      5-min Rain = 0
KEN1 251812Z 18006KT 26/15 A2997 RMK A01 T02610145  RH  049%=      5-min Rain = 0
KEN1 251813Z 17007KT 26/15 A2997 RMK A01 T02610146  RH  049%=      5-min Rain = 0
KEN1 251814Z 16008KT 26/15 A2997 RMK A01 T02610148  RH  050%=      5-min Rain = 0
KEN1 251815Z 17008KT 26/15 A2997 RMK A01 T02610149  RH  050%=      5-min Rain = 0
KEN1 251816Z 16008KT 26/15 A2997 RMK A01 T02610148  RH  050%=      5-min Rain = 0
KEN1 251817Z 15009KT 26/15 A2997 RMK A01 T02610148  RH  050%=      5-min Rain = 0
KEN1 251818Z 13008KT 26/15 A2997 RMK A01 T02600146  RH  049%=      5-min Rain = 0
KEN1 251819Z 12008KT 26/15 A2996 RMK A01 T02600147  RH  050%=      5-min Rain = 0
KEN1 251820Z 13007KT 26/15 A2996 RMK A01 T02590147  RH  050%=      5-min Rain = 0
KEN1 251821Z 13008KT 26/15 A2996 RMK A01 T02580150  RH  051%=      5-min Rain = 0
KEN1 251822Z 14008KT 26/15 A2996 RMK A01 T02570154  RH  053%=      5-min Rain = 0
KEN1 251823Z 14009KT 26/16 A2996 RMK A01 T02560158  RH  055%=      5-min Rain = 0
KEN1 251824Z 15010KT 25/16 A2996 RMK A01 T02530161  RH  057%=      5-min Rain = 0
KEN1 251825Z 14010KT 25/17 A2996 RMK A01 T02500166  RH  059%=      5-min Rain = 0
KEN1 251826Z 14008KT 25/17 A2996 RMK A01 T02460170  RH  062%=      5-min Rain = 0
KEN1 251827Z 14010KT 24/17 A2996 RMK A01 T02410169  RH  064%=      5-min Rain = 0
KEN1 251828Z 15009KT 24/17 A2996 RMK A01 T02380169  RH  066%=      5-min Rain = 0.01
KEN1 251829Z 15009KT 24/17 A2996 RMK A01 T02350170  RH  067%=      5-min Rain = 0
KEN1 251830Z 15007KT 23/17 A2995 RMK A01 T02330172  RH  068%=      5-min Rain = 0
KEN1 251831Z 16008KT 23/17 A2995 RMK A01 T02320174  RH  070%=      5-min Rain = 0
KEN1 251832Z 14007KT 23/17 A2995 RMK A01 T02310174  RH  070%=      5-min Rain = 0
KEN1 251833Z 13009KT 23/17 A2994 RMK A01 T02300174  RH  071%=      5-min Rain = 0
KEN1 251834Z 12009KT 23/18 A2993 RMK A01 T02300178  RH  073%=      5-min Rain = 0
KEN1 251835Z 13009KT 23/18 A2993 RMK A01 T02270179  RH  074%=      5-min Rain = 0
KEN1 251836Z 14008KT 23/18 A2994 RMK A01 T02260180  RH  075%=      5-min Rain = 0
KEN1 251837Z 15008KT 23/18 A2994 RMK A01 T02250180  RH  076%=      5-min Rain = 0.01
KEN1 251838Z 16008KT 22/18 A2994 RMK A01 T02240181  RH  077%=      5-min Rain = 0
KEN1 251839Z 16007KT 22/18 A2994 RMK A01 T02220183  RH  078%=      5-min Rain = 0
KEN1 251840Z 15007KT 22/18 A2994 RMK A01 T02210183  RH  079%=      5-min Rain = 0
KEN1 251841Z 15007KT 22/18 A2994 RMK A01 T02210183  RH  079%=      5-min Rain = 0
KEN1 251842Z 15007KT 22/18 A2994 RMK A01 T02210182  RH  079%=      5-min Rain = 0
KEN1 251843Z 14007KT 22/18 A2994 RMK A01 T02210181  RH  078%=      5-min Rain = 0
KEN1 251844Z 14006KT 22/18 A2994 RMK A01 T02220180  RH  077%=      5-min Rain = 0
KEN1 251845Z 13005KT 22/18 A2994 RMK A01 T02240182  RH  077%=      5-min Rain = 0
KEN1 251846Z 13005KT 22/18 A2993 RMK A01 T02240182  RH  077%=      5-min Rain = 0
KEN1 251847Z 12003KT 22/18 A2993 RMK A01 T02240182  RH  077%=      5-min Rain = 0
KEN1 251848Z 13003KT 22/18 A2993 RMK A01 T02240181  RH  076%=      5-min Rain = 0
KEN1 251849Z 13004KT 23/18 A2993 RMK A01 T02250183  RH  077%=      5-min Rain = 0
KEN1 251850Z 13005KT 23/18 A2993 RMK A01 T02250184  RH  078%=      5-min Rain = 0
KEN1 251851Z 12005KT 23/18 A2993 RMK A01 T02250184  RH  078%=      5-min Rain = 0
KEN1 251852Z 13005KT 22/19 A2994 RMK A01 T02240186  RH  079%=      5-min Rain = 0
KEN1 251853Z 13006KT 22/19 A2994 RMK A01 T02240187  RH  080%=      5-min Rain = 0
KEN1 251854Z 13006KT 22/19 A2994 RMK A01 T02230185  RH  079%=      5-min Rain = 0
KEN1 251855Z 13006KT 22/19 A2993 RMK A01 T02230185  RH  079%=      5-min Rain = 0.01
KEN1 251856Z 13005KT 22/18 A2993 RMK A01 T02230182  RH  078%=      5-min Rain = 0
KEN1 251857Z 13005KT 22/18 A2992 RMK A01 T02230182  RH  077%=      5-min Rain = 0
KEN1 251858Z 14004KT 22/18 A2992 RMK A01 T02230181  RH  077%=      5-min Rain = 0
KEN1 251859Z 15004KT 22/18 A2992 RMK A01 T02230182  RH  078%=      5-min Rain = 0
KEN1 251900Z 16004KT 22/18 A2993 RMK A01 T02230183  RH  078%=      5-min Rain = 0
KEN1 251901Z 17006KT 22/18 A2993 RMK A01 T02220184  RH  079%=      5-min Rain = 0
KEN1 251902Z 17007KT 22/19 A2994 RMK A01 T02220185  RH  079%=      5-min Rain = 0
KEN1 251903Z 17009KT 22/19 A2995 RMK A01 T02220185  RH  080%=      5-min Rain = 0
KEN1 251904Z 17011KT 22/18 A2996 RMK A01 T02210183  RH  079%=      5-min Rain = 0
KEN1 251905Z 17014KT 22/18 A2997 RMK A01 T02210184  RH  080%=      5-min Rain = 0.01
KEN1 251906Z 18016KT 22/19 A2998 RMK A01 T02200185  RH  081%=      5-min Rain = 0
KEN1 251907Z 18016KT 22/19 A2999 RMK A01 T02180186  RH  082%=      5-min Rain = 0.02
KEN1 251908Z 18014KT 22/19 A2999 RMK A01 T02160187  RH  084%=      5-min Rain = 0.01
KEN1 251909Z 18014KT 22/19 A2999 RMK A01 T02150188  RH  084%=      5-min Rain = 0.01
KEN1 251910Z 19027G37KT 21/18 A2999 RMK A01 T02120181  RH  083%=      5-min Rain = 0.03
KEN1 251911Z 22023KT 20/17 A2999 RMK A01 T02000173  RH  085%=      5-min Rain = 0.04
KEN1 251912Z 23020KT 19/18 A2999 RMK A01 T01910175  RH  090%=      5-min Rain = 0.04
KEN1 251913Z 24019KT 19/18 A2999 RMK A01 T01890176  RH  093%=      5-min Rain = 0.03
KEN1 251914Z 23015KT 19/17 A2998 RMK A01 T01850173  RH  093%=      5-min Rain = 0.05
KEN1 251915Z 22012G17KT 18/17 A2996 RMK A01 T01830173  RH  094%=      5-min Rain = 0.05
KEN1 251916Z 21008KT 18/17 A2995 RMK A01 T01810172  RH  094%=      5-min Rain = 0.03
KEN1 251917Z 18007G14KT 18/17 A2995 RMK A01 T01790168  RH  093%=      5-min Rain = 0.01
KEN1 251918Z 12012KT 18/17 A2995 RMK A01 T01790166  RH  092%=      5-min Rain = 0.01
KEN1 251919Z 13012KT 18/17 A2996 RMK A01 T01770167  RH  094%=      5-min Rain = 0.01
KEN1 251920Z 16012KT 18/17 A2996 RMK A01 T01770169  RH  095%=      5-min Rain = 0
KEN1 251921Z 16013KT 18/17 A2996 RMK A01 T01780170  RH  096%=      5-min Rain = 0
KEN1 251922Z 16015KT 18/17 A2996 RMK A01 T01780171  RH  096%=      5-min Rain = 0
KEN1 251923Z 15017KT 18/17 A2996 RMK A01 T01770170  RH  095%=      5-min Rain = 0
KEN1 251924Z 15018KT 18/17 A2996 RMK A01 T01770168  RH  094%=      5-min Rain = 0
KEN1 251925Z 15021KT 18/17 A2996 RMK A01 T01770167  RH  094%=      5-min Rain = 0
KEN1 251926Z 15020KT 18/16 A2996 RMK A01 T01750162  RH  092%=      5-min Rain = 0
KEN1 251927Z 15022KT 17/16 A2996 RMK A01 T01730157  RH  090%=      5-min Rain = 0
KEN1 251928Z 15020KT 17/15 A2996 RMK A01 T01700153  RH  089%=      5-min Rain = 0
KEN1 251929Z 15015KT 17/15 A2996 RMK A01 T01690153  RH  090%=      5-min Rain = 0
KEN1 251930Z 14015KT 17/15 A2996 RMK A01 T01690153  RH  090%=      5-min Rain = 0
KEN1 251931Z 15015KT 17/15 A2996 RMK A01 T01690152  RH  089%=      5-min Rain = 0
KEN1 251932Z 15017KT 17/15 A2996 RMK A01 T01700152  RH  089%=      5-min Rain = 0.01
KEN1 251933Z 15019G26KT 17/15 A2996 RMK A01 T01690151  RH  089%=      5-min Rain = 0
KEN1 251934Z 14021KT 17/14 A2996 RMK A01 T01650141  RH  086%=      5-min Rain = 0
KEN1 251935Z 14022KT 16/14 A2996 RMK A01 T01600137  RH  086%=      5-min Rain = 0
KEN1 251936Z 14020KT 16/13 A2996 RMK A01 T01550134  RH  087%=      5-min Rain = 0
KEN1 251937Z 14017KT 15/13 A2996 RMK A01 T01520133  RH  088%=      5-min Rain = 0
KEN1 251938Z 13015KT 15/13 A2996 RMK A01 T01510134  RH  090%=      5-min Rain = 0
KEN1 251939Z 12016KT 15/13 A2996 RMK A01 T01490134  RH  090%=      5-min Rain = 0
KEN1 251940Z 12014KT 15/14 A2996 RMK A01 T01490135  RH  091%=      5-min Rain = 0
KEN1 251941Z 12016KT 15/14 A2996 RMK A01 T01480135  RH  092%=      5-min Rain = 0
KEN1 251942Z 12016KT 15/14 A2996 RMK A01 T01480136  RH  092%=      5-min Rain = 0
KEN1 251943Z 11014KT 15/14 A2997 RMK A01 T01490136  RH  092%=      5-min Rain = 0
KEN1 251944Z 12011KT 15/14 A2997 RMK A01 T01490136  RH  092%=      5-min Rain = 0
KEN1 251945Z 12013KT 15/14 A2997 RMK A01 T01500137  RH  092%=      5-min Rain = 0
KEN1 251946Z 11013KT 15/14 A2997 RMK A01 T01510138  RH  091%=      5-min Rain = 0
KEN1 251947Z 10014KT 15/14 A2997 RMK A01 T01530138  RH  091%=      5-min Rain = 0
KEN1 251948Z 10015KT 15/14 A2997 RMK A01 T01530138  RH  091%=      5-min Rain = 0
KEN1 251949Z 11016KT 15/14 A2996 RMK A01 T01520137  RH  091%=      5-min Rain = 0
KEN1 251950Z 11015KT 15/14 A2996 RMK A01 T01510136  RH  091%=      5-min Rain = 0
KEN1 251951Z 12013KT 15/14 A2996 RMK A01 T01510136  RH  091%=      5-min Rain = 0
KEN1 251952Z 13015KT 15/14 A2996 RMK A01 T01520137  RH  091%=      5-min Rain = 0
KEN1 251953Z 12015KT 15/14 A2996 RMK A01 T01520136  RH  090%=      5-min Rain = 0
KEN1 251954Z 12014KT 15/14 A2996 RMK A01 T01530137  RH  090%=      5-min Rain = 0
KEN1 251955Z 12013KT 15/14 A2995 RMK A01 T01530137  RH  090%=      5-min Rain = 0
KEN1 251956Z 12012KT 15/14 A2995 RMK A01 T01530138  RH  091%=      5-min Rain = 0
KEN1 251957Z 13013KT 15/14 A2995 RMK A01 T01540139  RH  091%=      5-min Rain = 0
KEN1 251958Z 13014KT 16/14 A2995 RMK A01 T01550140  RH  091%=      5-min Rain = 0
KEN1 251959Z 14016KT 16/14 A2996 RMK A01 T01550139  RH  090%=      5-min Rain = 0
KEN1 252000Z 14016KT 16/14 A2996 RMK A01 T01560139  RH  089%=      5-min Rain = 0
KEN1 252001Z 14017KT 16/14 A2996 RMK A01 T01560139  RH  089%=      5-min Rain = 0
KEN1 252002Z 14014KT 16/14 A2996 RMK A01 T01560137  RH  089%=      5-min Rain = 0
KEN1 252003Z 15017KT 16/14 A2997 RMK A01 T01560139  RH  089%=      5-min Rain = 0
KEN1 252004Z 15018KT 16/14 A2997 RMK A01 T01580140  RH  089%=      5-min Rain = 0
KEN1 252005Z 14016KT 16/14 A2997 RMK A01 T01600141  RH  088%=      5-min Rain = 0
KEN1 252006Z 14017KT 16/14 A2997 RMK A01 T01610141  RH  088%=      5-min Rain = 0
KEN1 252007Z 14018KT 16/14 A2997 RMK A01 T01610140  RH  087%=      5-min Rain = 0
KEN1 252008Z 14019KT 16/14 A2997 RMK A01 T01610140  RH  087%=      5-min Rain = 0
KEN1 252009Z 14019KT 16/14 A2997 RMK A01 T01620141  RH  088%=      5-min Rain = 0
KEN1 252010Z 14019KT 16/14 A2997 RMK A01 T01610141  RH  088%=      5-min Rain = 0
KEN1 252011Z 15019KT 16/14 A2997 RMK A01 T01620142  RH  088%=      5-min Rain = 0
KEN1 252012Z 14016KT 16/14 A2997 RMK A01 T01630143  RH  088%=      5-min Rain = 0
KEN1 252013Z 14017KT 16/14 A2997 RMK A01 T01620142  RH  088%=      5-min Rain = 0
KEN1 252014Z 15020G25KT 16/14 A2997 RMK A01 T01630143  RH  088%=      5-min Rain = 0
KEN1 252015Z 14022G27KT 16/14 A2997 RMK A01 T01630142  RH  087%=      5-min Rain = 0
KEN1 252016Z 15018G25KT 16/14 A2998 RMK A01 T01640142  RH  087%=      5-min Rain = 0
KEN1 252017Z 16018KT 16/14 A2999 RMK A01 T01640143  RH  088%=      5-min Rain = 0
KEN1 252018Z 17018KT 16/14 A2999 RMK A01 T01630143  RH  088%=      5-min Rain = 0
KEN1 252019Z 17016KT 16/14 A30 RMK A01 T01610142  RH  088%=      5-min Rain = 0.01
KEN1 252020Z 18014KT 16/14 A30 RMK A01 T01600143  RH  089%=      5-min Rain = 0.01
KEN1 252021Z 18010KT 16/14 A2999 RMK A01 T01590144  RH  091%=      5-min Rain = 0.03
KEN1 252022Z 16008KT 16/15 A2997 RMK A01 T01580145  RH  092%=      5-min Rain = 0.05
KEN1 252023Z 12007KT 16/15 A2996 RMK A01 T01570145  RH  092%=      5-min Rain = 0.04
KEN1 252024Z 11008KT 16/15 A2995 RMK A01 T01580147  RH  093%=      5-min Rain = 0.03
KEN1 252025Z 12008KT 16/15 A2995 RMK A01 T01590149  RH  094%=      5-min Rain = 0.02
KEN1 252026Z 13011KT 16/15 A2995 RMK A01 T01600151  RH  095%=      5-min Rain = 0
KEN1 252027Z 14011KT 16/15 A2995 RMK A01 T01610153  RH  095%=      5-min Rain = 0
KEN1 252028Z 14014KT 16/15 A2995 RMK A01 T01620154  RH  095%=      5-min Rain = 0
KEN1 252029Z 14014KT 17/16 A2995 RMK A01 T01650156  RH  095%=      5-min Rain = 0.01
KEN1 252030Z 14015KT 17/16 A2995 RMK A01 T01660156  RH  094%=      5-min Rain = 0
KEN1 252031Z 14014KT 17/16 A2995 RMK A01 T01680157  RH  093%=      5-min Rain = 0
KEN1 252032Z 14016KT 17/16 A2995 RMK A01 T01700157  RH  092%=      5-min Rain = 0
KEN1 252033Z 14015KT 17/16 A2995 RMK A01 T01710155  RH  090%=      5-min Rain = 0
KEN1 252034Z 14012KT 17/15 A2995 RMK A01 T01720154  RH  089%=      5-min Rain = 0
KEN1 252035Z 15009KT 17/16 A2995 RMK A01 T01740158  RH  090%=      5-min Rain = 0
KEN1 252036Z 15013KT 18/16 A2995 RMK A01 T01770164  RH  093%=      5-min Rain = 0
KEN1 252037Z 15012KT 18/16 A2995 RMK A01 T01780163  RH  091%=      5-min Rain = 0
KEN1 252038Z 15010KT 18/17 A2995 RMK A01 T01810166  RH  091%=      5-min Rain = 0
KEN1 252039Z 15011KT 19/17 A2995 RMK A01 T01850173  RH  093%=      5-min Rain = 0
KEN1 252040Z 15011KT 19/17 A2995 RMK A01 T01870172  RH  091%=      5-min Rain = 0
KEN1 252041Z 15011KT 19/17 A2995 RMK A01 T01900174  RH  090%=      5-min Rain = 0
KEN1 252042Z 15012KT 19/18 A2995 RMK A01 T01930175  RH  089%=      5-min Rain = 0
KEN1 252043Z 15015KT 20/18 A2995 RMK A01 T01950175  RH  088%=      5-min Rain = 0
KEN1 252044Z 15014KT 20/18 A2995 RMK A01 T01970177  RH  088%=      5-min Rain = 0
KEN1 252045Z 14013G18KT 20/18 A2995 RMK A01 T02000178  RH  087%=      5-min Rain = 0
KEN1 252046Z 13015KT 20/17 A2995 RMK A01 T02010172  RH  083%=      5-min Rain = 0
KEN1 252047Z 13016KT 20/17 A2995 RMK A01 T02010171  RH  083%=      5-min Rain = 0
KEN1 252048Z 14014KT 20/17 A2995 RMK A01 T02000169  RH  082%=      5-min Rain = 0
KEN1 252049Z 15012KT 20/17 A2995 RMK A01 T02000169  RH  082%=      5-min Rain = 0
KEN1 252050Z 14013KT 20/17 A2995 RMK A01 T02010170  RH  083%=      5-min Rain = 0
KEN1 252051Z 14015KT 20/17 A2995 RMK A01 T02020168  RH  080%=      5-min Rain = 0
KEN1 252052Z 14012KT 20/17 A2995 RMK A01 T02040169  RH  080%=      5-min Rain = 0
KEN1 252053Z 15013KT 21/17 A2995 RMK A01 T02060172  RH  081%=      5-min Rain = 0
KEN1 252054Z 15014KT 21/18 A2995 RMK A01 T02090175  RH  081%=      5-min Rain = 0
KEN1 252055Z 15015KT 21/17 A2995 RMK A01 T02110172  RH  078%=      5-min Rain = 0
KEN1 252056Z 15016KT 21/17 A2995 RMK A01 T02130165  RH  074%=      5-min Rain = 0
KEN1 252057Z 15015G20KT 21/17 A2994 RMK A01 T02140167  RH  075%=      5-min Rain = 0
KEN1 252058Z 15017KT 22/17 A2994 RMK A01 T02150165  RH  073%=      5-min Rain = 0
KEN1 252059Z 15017KT 22/17 A2994 RMK A01 T02160166  RH  073%=      5-min Rain = 0
KEN1 252100Z 15016KT 22/17 A2994 RMK A01 T02160165  RH  073%=      5-min Rain = 0
KEN1 252101Z 16015KT 22/17 A2994 RMK A01 T02170167  RH  073%=      5-min Rain = 0
KEN1 252102Z 15013KT 22/17 A2994 RMK A01 T02180165  RH  072%=      5-min Rain = 0
KEN1 252103Z 15014KT 22/17 A2994 RMK A01 T02190169  RH  073%=      5-min Rain = 0
KEN1 252104Z 14013KT 22/17 A2994 RMK A01 T02200171  RH  074%=      5-min Rain = 0
KEN1 252105Z 14014KT 22/17 A2994 RMK A01 T02210170  RH  073%=      5-min Rain = 0
KEN1 252106Z 14015KT 22/17 A2994 RMK A01 T02220168  RH  072%=      5-min Rain = 0
KEN1 252107Z 14012KT 22/17 A2994 RMK A01 T02220168  RH  071%=      5-min Rain = 0
KEN1 252108Z 14013KT 22/17 A2994 RMK A01 T02220171  RH  073%=      5-min Rain = 0
KEN1 252109Z 14015KT 22/17 A2994 RMK A01 T02230168  RH  071%=      5-min Rain = 0
KEN1 252110Z 14012KT 22/17 A2994 RMK A01 T02230168  RH  071%=      5-min Rain = 0
KEN1 252111Z 14012KT 22/17 A2994 RMK A01 T02230168  RH  071%=      5-min Rain = 0
KEN1 252112Z 14012KT 22/17 A2994 RMK A01 T02230169  RH  071%=      5-min Rain = 0
KEN1 252113Z 13013KT 22/17 A2994 RMK A01 T02240170  RH  071%=      5-min Rain = 0
KEN1 252114Z 13014KT 23/17 A2994 RMK A01 T02250168  RH  070%=      5-min Rain = 0
KEN1 252115Z 13012KT 23/17 A2994 RMK A01 T02250167  RH  070%=      5-min Rain = 0
KEN1 252116Z 14014KT 23/17 A2994 RMK A01 T02260169  RH  070%=      5-min Rain = 0
KEN1 252117Z 13015KT 23/17 A2994 RMK A01 T02270167  RH  069%=      5-min Rain = 0
KEN1 252118Z 15016KT 23/17 A2994 RMK A01 T02270166  RH  068%=      5-min Rain = 0
KEN1 252119Z 14012KT 23/17 A2994 RMK A01 T02270165  RH  068%=      5-min Rain = 0
KEN1 252120Z 13016KT 23/17 A2994 RMK A01 T02270169  RH  069%=      5-min Rain = 0
KEN1 252121Z 13017KT 23/16 A2994 RMK A01 T02270163  RH  067%=      5-min Rain = 0
KEN1 252122Z 13014KT 23/17 A2994 RMK A01 T02260165  RH  068%=      5-min Rain = 0
KEN1 252123Z 13016KT 23/16 A2994 RMK A01 T02260164  RH  068%=      5-min Rain = 0
KEN1 252124Z 13015KT 23/16 A2994 RMK A01 T02260163  RH  068%=      5-min Rain = 0
KEN1 252125Z 14013KT 23/17 A2993 RMK A01 T02250165  RH  069%=      5-min Rain = 0
KEN1 252126Z 13016KT 23/17 A2993 RMK A01 T02250166  RH  069%=      5-min Rain = 0
KEN1 252127Z 14014KT 23/17 A2993 RMK A01 T02250165  RH  069%=      5-min Rain = 0
KEN1 252128Z 14014KT 23/16 A2993 RMK A01 T02250164  RH  068%=      5-min Rain = 0
KEN1 252129Z 14015KT 23/17 A2993 RMK A01 T02260168  RH  070%=      5-min Rain = 0
KEN1 252130Z 14014KT 23/17 A2993 RMK A01 T02270166  RH  068%=      5-min Rain = 0
KEN1 252131Z 14013KT 23/17 A2993 RMK A01 T02280166  RH  068%=      5-min Rain = 0
KEN1 252132Z 14014KT 23/17 A2993 RMK A01 T02290168  RH  069%=      5-min Rain = 0
KEN1 252133Z 15015KT 23/17 A2993 RMK A01 T02300166  RH  067%=      5-min Rain = 0
KEN1 252134Z 14014KT 23/17 A2993 RMK A01 T02310173  RH  070%=      5-min Rain = 0
KEN1 252135Z 13016G21KT 23/17 A2992 RMK A01 T02330168  RH  067%=      5-min Rain = 0
KEN1 252136Z 13018KT 23/17 A2992 RMK A01 T02320165  RH  066%=      5-min Rain = 0
KEN1 252137Z 13017KT 23/17 A2992 RMK A01 T02290166  RH  068%=      5-min Rain = 0
KEN1 252138Z 13016G21KT 23/16 A2992 RMK A01 T02270164  RH  067%=      5-min Rain = 0
KEN1 252139Z 13019KT 23/16 A2992 RMK A01 T02270163  RH  067%=      5-min Rain = 0
KEN1 252140Z 13015KT 23/17 A2992 RMK A01 T02270166  RH  069%=      5-min Rain = 0
KEN1 252141Z 12015KT 23/17 A2992 RMK A01 T02290171  RH  070%=      5-min Rain = 0
KEN1 252142Z 12017KT 23/16 A2992 RMK A01 T02300164  RH  066%=      5-min Rain = 0
KEN1 252143Z 13017KT 23/17 A2992 RMK A01 T02290166  RH  067%=      5-min Rain = 0
KEN1 252144Z 15016KT 23/17 A2992 RMK A01 T02290166  RH  068%=      5-min Rain = 0
KEN1 252145Z 15015KT 23/17 A2992 RMK A01 T02290167  RH  068%=      5-min Rain = 0
KEN1 252146Z 15018KT 23/17 A2992 RMK A01 T02310168  RH  068%=      5-min Rain = 0
KEN1 252147Z 14016KT 23/17 A2992 RMK A01 T02310168  RH  068%=      5-min Rain = 0
KEN1 252148Z 14016KT 23/17 A2992 RMK A01 T02310168  RH  068%=      5-min Rain = 0
KEN1 252149Z 14013KT 23/17 A2992 RMK A01 T02310171  RH  069%=      5-min Rain = 0
KEN1 252150Z 15014G19KT 23/17 A2991 RMK A01 T02330171  RH  068%=      5-min Rain = 0
KEN1 252151Z 15015KT 23/17 A2991 RMK A01 T02340169  RH  067%=      5-min Rain = 0
KEN1 252152Z 14017KT 23/17 A2991 RMK A01 T02340168  RH  066%=      5-min Rain = 0
KEN1 252153Z 14016KT 23/17 A2991 RMK A01 T02340170  RH  067%=      5-min Rain = 0
KEN1 252154Z 15014KT 23/17 A2991 RMK A01 T02340169  RH  067%=      5-min Rain = 0
KEN1 252155Z 16016G21KT 24/17 A2991 RMK A01 T02350172  RH  068%=      5-min Rain = 0
KEN1 252156Z 16016KT 24/17 A2991 RMK A01 T02370171  RH  066%=      5-min Rain = 0
KEN1 252157Z 15013KT 24/18 A2991 RMK A01 T02380175  RH  068%=      5-min Rain = 0
KEN1 252158Z 13015G21KT 24/17 A2991 RMK A01 T02400174  RH  067%=      5-min Rain = 0
KEN1 252159Z 14016KT 24/17 A2991 RMK A01 T02400172  RH  066%=      5-min Rain = 0
KEN1 252200Z 13014KT 24/17 A299 RMK A01 T02390169  RH  065%=      5-min Rain = 0
KEN1 252201Z 13011KT 24/17 A299 RMK A01 T02370171  RH  066%=      5-min Rain = 0
KEN1 252202Z 14013KT 24/18 A299 RMK A01 T02380176  RH  068%=      5-min Rain = 0
KEN1 252203Z 14013KT 24/17 A299 RMK A01 T02400174  RH  067%=      5-min Rain = 0
KEN1 252204Z 14014G19KT 24/18 A299 RMK A01 T02410176  RH  067%=      5-min Rain = 0
KEN1 252205Z 13015KT 24/17 A299 RMK A01 T02410174  RH  066%=      5-min Rain = 0
KEN1 252206Z 14015KT 24/17 A299 RMK A01 T02410174  RH  066%=      5-min Rain = 0
KEN1 252207Z 14014KT 24/18 A299 RMK A01 T02410177  RH  067%=      5-min Rain = 0
KEN1 252208Z 14017G22KT 24/18 A299 RMK A01 T02420177  RH  067%=      5-min Rain = 0
KEN1 252209Z 14016KT 24/18 A299 RMK A01 T02430176  RH  066%=      5-min Rain = 0
KEN1 252210Z 15016KT 24/18 A299 RMK A01 T02430175  RH  066%=      5-min Rain = 0
KEN1 252211Z 15016KT 24/18 A299 RMK A01 T02420176  RH  066%=      5-min Rain = 0
KEN1 252212Z 14019G24KT 24/18 A299 RMK A01 T02420175  RH  066%=      5-min Rain = 0
KEN1 252213Z 15017KT 24/18 A299 RMK A01 T02430176  RH  066%=      5-min Rain = 0
KEN1 252214Z 15020KT 24/17 A299 RMK A01 T02430174  RH  066%=      5-min Rain = 0
KEN1 252215Z 15021KT 24/17 A299 RMK A01 T02430173  RH  065%=      5-min Rain = 0
KEN1 252216Z 15019KT 24/17 A299 RMK A01 T02430172  RH  065%=      5-min Rain = 0
KEN1 252217Z 15017G23KT 24/18 A299 RMK A01 T02440176  RH  066%=      5-min Rain = 0
KEN1 252218Z 15021KT 25/17 A299 RMK A01 T02460172  RH  063%=      5-min Rain = 0
KEN1 252219Z 14019KT 25/17 A299 RMK A01 T02460173  RH  064%=      5-min Rain = 0
KEN1 252220Z 15016KT 25/17 A299 RMK A01 T02450174  RH  064%=      5-min Rain = 0
KEN1 252221Z 14017KT 25/18 A299 RMK A01 T02450176  RH  065%=      5-min Rain = 0
KEN1 252222Z 14017KT 25/18 A299 RMK A01 T02450175  RH  065%=      5-min Rain = 0
KEN1 252223Z 14016KT 25/18 A299 RMK A01 T02460175  RH  065%=      5-min Rain = 0
KEN1 252224Z 13015KT 25/18 A299 RMK A01 T02460177  RH  066%=      5-min Rain = 0
KEN1 252225Z 13017KT 25/18 A299 RMK A01 T02460177  RH  065%=      5-min Rain = 0
KEN1 252226Z 14017KT 25/18 A299 RMK A01 T02470180  RH  066%=      5-min Rain = 0
KEN1 252227Z 13019KT 25/18 A2989 RMK A01 T02480178  RH  065%=      5-min Rain = 0
KEN1 252228Z 14017KT 25/18 A2989 RMK A01 T02470178  RH  065%=      5-min Rain = 0
KEN1 252229Z 12017KT 25/18 A2989 RMK A01 T02470179  RH  066%=      5-min Rain = 0
KEN1 252230Z 12017KT 25/18 A2989 RMK A01 T02470178  RH  066%=      5-min Rain = 0
KEN1 252231Z 13019KT 25/18 A2989 RMK A01 T02480178  RH  065%=      5-min Rain = 0
KEN1 252232Z 14020G25KT 25/18 A2989 RMK A01 T02480177  RH  065%=      5-min Rain = 0
KEN1 252233Z 14016G21KT 25/18 A2989 RMK A01 T02470180  RH  066%=      5-min Rain = 0
KEN1 252234Z 14019KT 25/18 A2989 RMK A01 T02470179  RH  066%=      5-min Rain = 0
KEN1 252235Z 14020KT 25/18 A2989 RMK A01 T02470178  RH  065%=      5-min Rain = 0
KEN1 252236Z 13020KT 25/18 A2989 RMK A01 T02470177  RH  065%=      5-min Rain = 0
KEN1 252237Z 13017KT 25/18 A2989 RMK A01 T02470178  RH  065%=      5-min Rain = 0
KEN1 252238Z 14018G23KT 25/18 A2989 RMK A01 T02480178  RH  065%=      5-min Rain = 0
KEN1 252239Z 14018KT 25/18 A2989 RMK A01 T02480177  RH  065%=      5-min Rain = 0
KEN1 252240Z 14017KT 25/18 A2989 RMK A01 T02480177  RH  064%=      5-min Rain = 0
KEN1 252241Z 14018KT 25/18 A2989 RMK A01 T02500179  RH  065%=      5-min Rain = 0
KEN1 252242Z 14018KT 25/18 A2989 RMK A01 T02510178  RH  064%=      5-min Rain = 0
KEN1 252243Z 14019KT 25/18 A2989 RMK A01 T02510178  RH  064%=      5-min Rain = 0
KEN1 252244Z 14020KT 25/18 A2989 RMK A01 T02510178  RH  064%=      5-min Rain = 0
KEN1 252245Z 14016KT 25/18 A2989 RMK A01 T02510178  RH  064%=      5-min Rain = 0
KEN1 252246Z 14015KT 25/18 A2989 RMK A01 T02520178  RH  064%=      5-min Rain = 0
KEN1 252247Z 14015KT 25/18 A2989 RMK A01 T02530182  RH  065%=      5-min Rain = 0
KEN1 252248Z 15014KT 26/18 A2989 RMK A01 T02560180  RH  063%=      5-min Rain = 0
KEN1 252249Z 15017KT 26/18 A2989 RMK A01 T02560180  RH  063%=      5-min Rain = 0
KEN1 252250Z 16015KT 26/18 A2989 RMK A01 T02570182  RH  063%=      5-min Rain = 0
KEN1 252251Z 15017KT 26/18 A2988 RMK A01 T02580180  RH  062%=      5-min Rain = 0
KEN1 252252Z 15016KT 26/18 A2988 RMK A01 T02570179  RH  062%=      5-min Rain = 0
KEN1 252253Z 16018KT 26/18 A2988 RMK A01 T02570178  RH  062%=      5-min Rain = 0
KEN1 252254Z 15018KT 26/18 A2988 RMK A01 T02570177  RH  061%=      5-min Rain = 0
KEN1 252255Z 15017KT 26/18 A2988 RMK A01 T02560176  RH  061%=      5-min Rain = 0
KEN1 252256Z 16017KT 26/17 A2988 RMK A01 T02570174  RH  060%=      5-min Rain = 0
KEN1 252257Z 17018KT 26/17 A2988 RMK A01 T02580172  RH  059%=      5-min Rain = 0
KEN1 252258Z 16019KT 26/17 A2988 RMK A01 T02590172  RH  059%=      5-min Rain = 0
KEN1 252259Z 16017KT 26/17 A2988 RMK A01 T02600173  RH  059%=      5-min Rain = 0
KEN1 252300Z 15017KT 26/17 A2988 RMK A01 T02610173  RH  058%=      5-min Rain = 0
KEN1 252301Z 15015KT 26/17 A2988 RMK A01 T02610173  RH  058%=      5-min Rain = 0
KEN1 252302Z 15014KT 26/17 A2988 RMK A01 T02620170  RH  057%=      5-min Rain = 0
KEN1 252303Z 14015KT 26/18 A2988 RMK A01 T02620180  RH  060%=      5-min Rain = 0
KEN1 252304Z 13014KT 26/18 A2988 RMK A01 T02600184  RH  063%=      5-min Rain = 0
KEN1 252305Z 13017G22KT 26/19 A2988 RMK A01 T02580185  RH  064%=      5-min Rain = 0
KEN1 252306Z 13019KT 26/18 A2988 RMK A01 T02560180  RH  063%=      5-min Rain = 0
KEN1 252307Z 13016KT 25/18 A2988 RMK A01 T02540182  RH  064%=      5-min Rain = 0
KEN1 252308Z 13019KT 25/18 A2988 RMK A01 T02540180  RH  063%=      5-min Rain = 0
KEN1 252309Z 12018KT 25/18 A2988 RMK A01 T02540180  RH  064%=      5-min Rain = 0
KEN1 252310Z 13018KT 25/18 A2988 RMK A01 T02540180  RH  064%=      5-min Rain = 0
KEN1 252311Z 13017KT 25/18 A2988 RMK A01 T02540177  RH  062%=      5-min Rain = 0
KEN1 252312Z 13013KT 25/18 A2988 RMK A01 T02530176  RH  062%=      5-min Rain = 0
KEN1 252313Z 13015KT 25/18 A2988 RMK A01 T02530181  RH  064%=      5-min Rain = 0
KEN1 252314Z 13017KT 25/18 A2988 RMK A01 T02540176  RH  062%=      5-min Rain = 0
KEN1 252315Z 13019KT 26/18 A2988 RMK A01 T02550177  RH  062%=      5-min Rain = 0
KEN1 252316Z 14020KT 26/18 A2988 RMK A01 T02550176  RH  062%=      5-min Rain = 0
KEN1 252317Z 13018KT 25/18 A2988 RMK A01 T02540175  RH  061%=      5-min Rain = 0
KEN1 252318Z 13016KT 25/18 A2988 RMK A01 T02540177  RH  063%=      5-min Rain = 0
KEN1 252319Z 13015KT 25/18 A2987 RMK A01 T02540176  RH  062%=      5-min Rain = 0
KEN1 252320Z 13016KT 26/18 A2987 RMK A01 T02550179  RH  063%=      5-min Rain = 0
KEN1 252321Z 13016KT 26/18 A2987 RMK A01 T02550177  RH  062%=      5-min Rain = 0
KEN1 252322Z 13017KT 26/18 A2987 RMK A01 T02550178  RH  062%=      5-min Rain = 0
KEN1 252323Z 13018KT 25/18 A2987 RMK A01 T02540176  RH  062%=      5-min Rain = 0
KEN1 252324Z 14017KT 25/17 A2987 RMK A01 T02540174  RH  061%=      5-min Rain = 0
KEN1 252325Z 14016KT 26/18 A2987 RMK A01 T02550179  RH  063%=      5-min Rain = 0
KEN1 252326Z 13018KT 26/18 A2987 RMK A01 T02560179  RH  062%=      5-min Rain = 0
KEN1 252327Z 14017KT 26/18 A2987 RMK A01 T02560175  RH  061%=      5-min Rain = 0
KEN1 252328Z 14020KT 26/18 A2987 RMK A01 T02560176  RH  061%=      5-min Rain = 0
KEN1 252329Z 13019KT 26/18 A2987 RMK A01 T02560177  RH  062%=      5-min Rain = 0
KEN1 252330Z 14019KT 26/18 A2988 RMK A01 T02550178  RH  062%=      5-min Rain = 0
KEN1 252331Z 13017KT 25/18 A2987 RMK A01 T02540177  RH  062%=      5-min Rain = 0
KEN1 252332Z 13015G20KT 25/18 A2987 RMK A01 T02540180  RH  063%=      5-min Rain = 0
KEN1 252333Z 14018KT 25/18 A2987 RMK A01 T02540177  RH  062%=      5-min Rain = 0
KEN1 252334Z 14017KT 25/18 A2987 RMK A01 T02540179  RH  063%=      5-min Rain = 0
KEN1 252335Z 14017G22KT 26/18 A2987 RMK A01 T02550181  RH  064%=      5-min Rain = 0
KEN1 252336Z 13020KT 26/18 A2987 RMK A01 T02560178  RH  062%=      5-min Rain = 0
KEN1 252337Z 13018KT 26/18 A2987 RMK A01 T02550179  RH  063%=      5-min Rain = 0
KEN1 252338Z 14016KT 26/18 A2987 RMK A01 T02550180  RH  063%=      5-min Rain = 0
KEN1 252339Z 13016KT 26/18 A2987 RMK A01 T02550180  RH  063%=      5-min Rain = 0
KEN1 252340Z 14019KT 26/18 A2987 RMK A01 T02560180  RH  063%=      5-min Rain = 0
KEN1 252341Z 14019KT 26/18 A2987 RMK A01 T02550179  RH  063%=      5-min Rain = 0
KEN1 252342Z 13019KT 25/18 A2987 RMK A01 T02540180  RH  064%=      5-min Rain = 0
KEN1 252343Z 14018KT 25/18 A2987 RMK A01 T02530181  RH  064%=      5-min Rain = 0
KEN1 252344Z 13019KT 25/18 A2988 RMK A01 T02530181  RH  064%=      5-min Rain = 0
KEN1 252345Z 14016G22KT 25/18 A2988 RMK A01 T02520181  RH  064%=      5-min Rain = 0
KEN1 252346Z 14018G24KT 25/18 A2988 RMK A01 T02520182  RH  065%=      5-min Rain = 0
KEN1 252347Z 14020KT 25/18 A2988 RMK A01 T02520179  RH  064%=      5-min Rain = 0
KEN1 252348Z 13018KT 25/18 A2988 RMK A01 T02510181  RH  065%=      5-min Rain = 0
KEN1 252349Z 14019G25KT 25/18 A2988 RMK A01 T02500182  RH  066%=      5-min Rain = 0
KEN1 252350Z 13021KT 25/18 A2988 RMK A01 T02490179  RH  065%=      5-min Rain = 0
KEN1 252351Z 13021KT 25/18 A2988 RMK A01 T02470178  RH  066%=      5-min Rain = 0
KEN1 252352Z 13022KT 25/18 A2988 RMK A01 T02460177  RH  066%=      5-min Rain = 0
KEN1 252353Z 14022KT 25/18 A2988 RMK A01 T02450176  RH  065%=      5-min Rain = 0
KEN1 252354Z 14022KT 24/17 A2988 RMK A01 T02440174  RH  065%=      5-min Rain = 0
KEN1 252355Z 14021KT 24/17 A2988 RMK A01 T02440173  RH  065%=      5-min Rain = 0
KEN1 252356Z 14022KT 24/17 A2988 RMK A01 T02440171  RH  064%=      5-min Rain = 0
KEN1 252357Z 14022G27KT 25/17 A2988 RMK A01 T02450172  RH  064%=      5-min Rain = 0
KEN1 252358Z 14022KT 24/17 A2988 RMK A01 T02440172  RH  064%=      5-min Rain = 0
KEN1 252359Z 14019G24KT 25/17 A2988 RMK A01 T02450174  RH  064%=      5-min Rain = 0
KEN1 260000Z 14019KT 25/18 A2988 RMK A01 T02460176  RH  065%=      5-min Rain = 0
KEN1 260001Z 14020KT 25/18 A2988 RMK A01 T02460175  RH  064%=      5-min Rain = 0
KEN1 260002Z 13016KT 25/18 A2988 RMK A01 T02460176  RH  065%=      5-min Rain = 0
KEN1 260003Z 13020G26KT 25/18 A2988 RMK A01 T02460177  RH  065%=      5-min Rain = 0
KEN1 260004Z 13022KT 25/18 A2988 RMK A01 T02460175  RH  064%=      5-min Rain = 0
KEN1 260005Z 13020KT 25/18 A2988 RMK A01 T02460176  RH  065%=      5-min Rain = 0
KEN1 260006Z 13020KT 25/18 A2988 RMK A01 T02450175  RH  065%=      5-min Rain = 0
KEN1 260007Z 13021KT 25/18 A2988 RMK A01 T02450175  RH  065%=      5-min Rain = 0
KEN1 260008Z 13020KT 24/18 A2988 RMK A01 T02440176  RH  066%=      5-min Rain = 0
KEN1 260009Z 13021KT 24/18 A2988 RMK A01 T02430177  RH  067%=      5-min Rain = 0
KEN1 260010Z 14021KT 24/18 A2988 RMK A01 T02430179  RH  067%=      5-min Rain = 0
KEN1 260011Z 14021G26KT 24/18 A2988 RMK A01 T02440180  RH  068%=      5-min Rain = 0
KEN1 260012Z 14020KT 24/18 A2988 RMK A01 T02430181  RH  068%=      5-min Rain = 0
KEN1 260013Z 14022KT 24/18 A2988 RMK A01 T02430180  RH  068%=      5-min Rain = 0
KEN1 260014Z 13022KT 24/18 A2987 RMK A01 T02430180  RH  068%=      5-min Rain = 0
KEN1 260015Z 13023KT 24/18 A2987 RMK A01 T02430180  RH  068%=      5-min Rain = 0
KEN1 260016Z 13025G30KT 24/18 A2987 RMK A01 T02430180  RH  068%=      5-min Rain = 0
KEN1 260017Z 13024KT 24/18 A2988 RMK A01 T02430182  RH  069%=      5-min Rain = 0
KEN1 260018Z 14023KT 24/18 A2988 RMK A01 T02430183  RH  069%=      5-min Rain = 0
KEN1 260019Z 14025KT 24/18 A2988 RMK A01 T02420184  RH  070%=      5-min Rain = 0
KEN1 260020Z 13025G30KT 24/18 A2988 RMK A01 T02420183  RH  070%=      5-min Rain = 0
KEN1 260021Z 13024KT 24/18 A2988 RMK A01 T02420184  RH  070%=      5-min Rain = 0
KEN1 260022Z 13022G27KT 24/18 A2988 RMK A01 T02410184  RH  070%=      5-min Rain = 0
KEN1 260023Z 13025G30KT 24/18 A2988 RMK A01 T02410184  RH  070%=      5-min Rain = 0
KEN1 260024Z 13022G27KT 24/18 A2988 RMK A01 T02400183  RH  071%=      5-min Rain = 0
KEN1 260025Z 14020G25KT 24/18 A2988 RMK A01 T02400184  RH  071%=      5-min Rain = 0
KEN1 260026Z 14022G27KT 24/18 A2988 RMK A01 T02400184  RH  071%=      5-min Rain = 0
KEN1 260027Z 14023KT 24/18 A2988 RMK A01 T02400182  RH  070%=      5-min Rain = 0
KEN1 260028Z 13026KT 24/18 A2988 RMK A01 T02390182  RH  070%=      5-min Rain = 0
KEN1 260029Z 14027KT 24/18 A2988 RMK A01 T02390180  RH  069%=      5-min Rain = 0
KEN1 260030Z 13021KT 24/18 A2988 RMK A01 T02390181  RH  070%=      5-min Rain = 0
KEN1 260031Z 13022KT 24/18 A2988 RMK A01 T02380182  RH  071%=      5-min Rain = 0
KEN1 260032Z 13025KT 24/18 A2988 RMK A01 T02390182  RH  071%=      5-min Rain = 0
KEN1 260033Z 14026G31KT 24/18 A2988 RMK A01 T02380182  RH  071%=      5-min Rain = 0
KEN1 260034Z 14025KT 24/18 A2988 RMK A01 T02380183  RH  071%=      5-min Rain = 0
KEN1 260035Z 14024KT 24/18 A2988 RMK A01 T02370183  RH  072%=      5-min Rain = 0
KEN1 260036Z 14020KT 24/18 A2988 RMK A01 T02370184  RH  072%=      5-min Rain = 0
KEN1 260037Z 14019G26KT 24/18 A2988 RMK A01 T02370184  RH  072%=      5-min Rain = 0
KEN1 260038Z 14019G24KT 24/18 A2988 RMK A01 T02360182  RH  072%=      5-min Rain = 0
KEN1 260039Z 14019G28KT 24/18 A2988 RMK A01 T02360183  RH  072%=      5-min Rain = 0
KEN1 260040Z 14028KT 24/18 A2988 RMK A01 T02350179  RH  071%=      5-min Rain = 0
KEN1 260041Z 14026KT 23/18 A2988 RMK A01 T02330175  RH  070%=      5-min Rain = 0
KEN1 260042Z 14027KT 23/17 A2988 RMK A01 T02310173  RH  070%=      5-min Rain = 0
KEN1 260043Z 14024KT 23/17 A2989 RMK A01 T02310173  RH  070%=      5-min Rain = 0
KEN1 260044Z 14020KT 23/17 A2988 RMK A01 T02310174  RH  070%=      5-min Rain = 0
KEN1 260045Z 14021KT 23/18 A2989 RMK A01 T02300175  RH  071%=      5-min Rain = 0
KEN1 260046Z 14028G36KT 23/17 A2989 RMK A01 T02290174  RH  071%=      5-min Rain = 0
KEN1 260047Z 14025G33KT 23/17 A2988 RMK A01 T02280174  RH  071%=      5-min Rain = 0
KEN1 260048Z 14026G31KT 23/17 A2988 RMK A01 T02280174  RH  072%=      5-min Rain = 0
KEN1 260049Z 14024KT 23/18 A2989 RMK A01 T02270175  RH  072%=      5-min Rain = 0
KEN1 260050Z 14025G31KT 23/18 A2989 RMK A01 T02270176  RH  073%=      5-min Rain = 0
KEN1 260051Z 15024G30KT 23/18 A2988 RMK A01 T02270176  RH  073%=      5-min Rain = 0
KEN1 260052Z 15027G32KT 23/18 A2989 RMK A01 T02260176  RH  073%=      5-min Rain = 0
KEN1 260053Z 15023G29KT 23/18 A2988 RMK A01 T02260176  RH  073%=      5-min Rain = 0
KEN1 260054Z 15024KT 23/18 A2988 RMK A01 T02260177  RH  074%=      5-min Rain = 0
KEN1 260055Z 15024KT 23/18 A2988 RMK A01 T02260176  RH  074%=      5-min Rain = 0
KEN1 260056Z 14021G26KT 23/18 A2988 RMK A01 T02250176  RH  074%=      5-min Rain = 0
KEN1 260057Z 14025G32KT 23/18 A2988 RMK A01 T02250176  RH  074%=      5-min Rain = 0
KEN1 260058Z 14025G31KT 23/18 A2988 RMK A01 T02250175  RH  073%=      5-min Rain = 0
KEN1 260059Z 15025KT 23/17 A2988 RMK A01 T02250174  RH  073%=      5-min Rain = 0
KEN1 260100Z 15022KT 23/17 A2988 RMK A01 T02250174  RH  073%=      5-min Rain = 0
KEN1 260101Z 14020KT 22/17 A2988 RMK A01 T02240174  RH  074%=      5-min Rain = 0
KEN1 260102Z 15025KT 22/17 A2988 RMK A01 T02240173  RH  073%=      5-min Rain = 0
KEN1 260103Z 14022KT 22/17 A2988 RMK A01 T02240172  RH  072%=      5-min Rain = 0
KEN1 260104Z 15022KT 22/17 A2988 RMK A01 T02240171  RH  072%=      5-min Rain = 0
KEN1 260105Z 15019KT 22/17 A2988 RMK A01 T02240171  RH  072%=      5-min Rain = 0
KEN1 260106Z 14020G25KT 22/17 A2988 RMK A01 T02240171  RH  072%=      5-min Rain = 0
KEN1 260107Z 14019KT 22/17 A2988 RMK A01 T02240171  RH  072%=      5-min Rain = 0
KEN1 260108Z 14021KT 22/17 A2988 RMK A01 T02230171  RH  072%=      5-min Rain = 0
KEN1 260109Z 14022KT 22/17 A2988 RMK A01 T02230169  RH  071%=      5-min Rain = 0
KEN1 260110Z 14020KT 22/17 A2988 RMK A01 T02230169  RH  071%=      5-min Rain = 0
KEN1 260111Z 14018KT 22/17 A2988 RMK A01 T02230169  RH  072%=      5-min Rain = 0
KEN1 260112Z 14017KT 22/17 A2989 RMK A01 T02220169  RH  072%=      5-min Rain = 0
KEN1 260113Z 14017KT 22/17 A2989 RMK A01 T02210169  RH  072%=      5-min Rain = 0
KEN1 260114Z 14017G22KT 22/17 A2989 RMK A01 T02210168  RH  072%=      5-min Rain = 0
KEN1 260115Z 14020KT 22/17 A2989 RMK A01 T02200167  RH  072%=      5-min Rain = 0
KEN1 260116Z 14019KT 22/17 A2989 RMK A01 T02200166  RH  071%=      5-min Rain = 0
KEN1 260117Z 14018KT 22/17 A2989 RMK A01 T02200166  RH  072%=      5-min Rain = 0
KEN1 260118Z 14018KT 22/17 A2989 RMK A01 T02190165  RH  072%=      5-min Rain = 0
KEN1 260119Z 14017KT 22/17 A2989 RMK A01 T02190165  RH  071%=      5-min Rain = 0
KEN1 260120Z 14019KT 22/17 A2989 RMK A01 T02190165  RH  072%=      5-min Rain = 0
KEN1 260121Z 14022KT 22/16 A2989 RMK A01 T02180163  RH  071%=      5-min Rain = 0
KEN1 260122Z 15021KT 22/16 A2989 RMK A01 T02180162  RH  070%=      5-min Rain = 0
KEN1 260123Z 15020KT 22/16 A2989 RMK A01 T02190161  RH  070%=      5-min Rain = 0
KEN1 260124Z 15019KT 22/16 A2989 RMK A01 T02190160  RH  069%=      5-min Rain = 0
KEN1 260125Z 15022KT 22/16 A2989 RMK A01 T02190160  RH  069%=      5-min Rain = 0
KEN1 260126Z 15020G25KT 22/16 A2989 RMK A01 T02190158  RH  068%=      5-min Rain = 0
KEN1 260127Z 15020G26KT 22/16 A2989 RMK A01 T02190158  RH  068%=      5-min Rain = 0
KEN1 260128Z 15022KT 22/16 A2989 RMK A01 T02190157  RH  068%=      5-min Rain = 0
KEN1 260129Z 15022G27KT 22/16 A2989 RMK A01 T02190156  RH  067%=      5-min Rain = 0
KEN1 260130Z 15022KT 22/16 A2989 RMK A01 T02200157  RH  067%=      5-min Rain = 0
KEN1 260131Z 15022KT 22/16 A299 RMK A01 T02190156  RH  067%=      5-min Rain = 0
KEN1 260132Z 15021G26KT 22/16 A299 RMK A01 T02190156  RH  067%=      5-min Rain = 0
KEN1 260133Z 15022G27KT 22/16 A299 RMK A01 T02190155  RH  067%=      5-min Rain = 0
KEN1 260134Z 15018KT 22/16 A299 RMK A01 T02200156  RH  067%=      5-min Rain = 0
KEN1 260135Z 15018G24KT 22/16 A299 RMK A01 T02180157  RH  068%=      5-min Rain = 0
KEN1 260136Z 15019KT 22/16 A299 RMK A01 T02170157  RH  068%=      5-min Rain = 0
KEN1 260137Z 15019KT 22/16 A299 RMK A01 T02170157  RH  069%=      5-min Rain = 0
KEN1 260138Z 15020KT 22/16 A299 RMK A01 T02170157  RH  069%=      5-min Rain = 0
KEN1 260139Z 15018KT 22/16 A299 RMK A01 T02160157  RH  069%=      5-min Rain = 0
KEN1 260140Z 15021KT 22/16 A299 RMK A01 T02160157  RH  069%=      5-min Rain = 0
KEN1 260141Z 15021KT 22/16 A299 RMK A01 T02160157  RH  069%=      5-min Rain = 0
KEN1 260142Z 15019KT 22/16 A299 RMK A01 T02160157  RH  069%=      5-min Rain = 0
KEN1 260143Z 15019KT 22/16 A299 RMK A01 T02150158  RH  070%=      5-min Rain = 0
KEN1 260144Z 15018KT 22/16 A299 RMK A01 T02150158  RH  070%=      5-min Rain = 0
KEN1 260145Z 15019G24KT 21/16 A299 RMK A01 T02140158  RH  070%=      5-min Rain = 0
KEN1 260146Z 15021KT 21/16 A299 RMK A01 T02140158  RH  070%=      5-min Rain = 0
KEN1 260147Z 14018KT 21/16 A299 RMK A01 T02140158  RH  070%=      5-min Rain = 0
KEN1 260148Z 15020KT 21/16 A299 RMK A01 T02140158  RH  070%=      5-min Rain = 0
KEN1 260149Z 15018KT 21/16 A299 RMK A01 T02140158  RH  071%=      5-min Rain = 0
KEN1 260150Z 15018KT 21/16 A299 RMK A01 T02130158  RH  071%=      5-min Rain = 0
KEN1 260151Z 15018KT 21/16 A299 RMK A01 T02130159  RH  071%=      5-min Rain = 0
KEN1 260152Z 15017KT 21/16 A2991 RMK A01 T02120160  RH  072%=      5-min Rain = 0
KEN1 260153Z 15018G23KT 21/16 A299 RMK A01 T02110160  RH  072%=      5-min Rain = 0
KEN1 260154Z 14018KT 21/16 A299 RMK A01 T02110159  RH  072%=      5-min Rain = 0
KEN1 260155Z 15016KT 21/16 A299 RMK A01 T02110160  RH  073%=      5-min Rain = 0
KEN1 260156Z 15018G23KT 21/16 A299 RMK A01 T02100161  RH  073%=      5-min Rain = 0
KEN1 260157Z 14017KT 21/16 A299 RMK A01 T02090160  RH  073%=      5-min Rain = 0
KEN1 260158Z 14018KT 21/16 A299 RMK A01 T02100160  RH  073%=      5-min Rain = 0
KEN1 260159Z 15019G24KT 21/16 A299 RMK A01 T02100161  RH  074%=      5-min Rain = 0
KEN1 260200Z 15017G22KT 21/16 A299 RMK A01 T02100162  RH  074%=      5-min Rain = 0
KEN1 260201Z 15020G25KT 21/16 A299 RMK A01 T02080162  RH  075%=      5-min Rain = 0
KEN1 260202Z 15020KT 21/16 A299 RMK A01 T02080161  RH  074%=      5-min Rain = 0
KEN1 260203Z 15020G25KT 21/16 A299 RMK A01 T02080161  RH  074%=      5-min Rain = 0
KEN1 260204Z 15020KT 21/16 A299 RMK A01 T02080161  RH  074%=      5-min Rain = 0
KEN1 260205Z 15021KT 21/16 A299 RMK A01 T02080160  RH  074%=      5-min Rain = 0
KEN1 260206Z 15021KT 21/16 A299 RMK A01 T02090160  RH  073%=      5-min Rain = 0
KEN1 260207Z 15020KT 21/16 A299 RMK A01 T02090159  RH  073%=      5-min Rain = 0
KEN1 260208Z 15020KT 21/16 A299 RMK A01 T02090160  RH  074%=      5-min Rain = 0
KEN1 260209Z 15019KT 21/16 A299 RMK A01 T02080160  RH  074%=      5-min Rain = 0
KEN1 260210Z 15019KT 21/16 A299 RMK A01 T02080160  RH  074%=      5-min Rain = 0
KEN1 260211Z 15019KT 21/16 A299 RMK A01 T02080160  RH  074%=      5-min Rain = 0
KEN1 260212Z 14020KT 21/16 A299 RMK A01 T02080160  RH  074%=      5-min Rain = 0
KEN1 260213Z 14020KT 21/16 A299 RMK A01 T02070160  RH  074%=      5-min Rain = 0
KEN1 260214Z 15017KT 21/16 A299 RMK A01 T02070160  RH  074%=      5-min Rain = 0
KEN1 260215Z 15019KT 21/16 A299 RMK A01 T02070160  RH  074%=      5-min Rain = 0
KEN1 260216Z 14021KT 21/16 A299 RMK A01 T02060160  RH  075%=      5-min Rain = 0
KEN1 260217Z 15020KT 21/16 A299 RMK A01 T02060160  RH  075%=      5-min Rain = 0
KEN1 260218Z 15021KT 21/16 A299 RMK A01 T02060160  RH  075%=      5-min Rain = 0
KEN1 260219Z 15019KT 21/16 A299 RMK A01 T02060160  RH  075%=      5-min Rain = 0
KEN1 260220Z 15019KT 21/16 A299 RMK A01 T02060161  RH  075%=      5-min Rain = 0
KEN1 260221Z 15017KT 21/16 A299 RMK A01 T02060161  RH  075%=      5-min Rain = 0
KEN1 260222Z 15018KT 21/16 A299 RMK A01 T02050161  RH  076%=      5-min Rain = 0
KEN1 260223Z 14018KT 21/16 A299 RMK A01 T02050161  RH  076%=      5-min Rain = 0
KEN1 260224Z 15018KT 20/16 A299 RMK A01 T02040161  RH  076%=      5-min Rain = 0
KEN1 260225Z 14018KT 20/16 A299 RMK A01 T02040161  RH  076%=      5-min Rain = 0
KEN1 260226Z 14019KT 20/16 A299 RMK A01 T02040162  RH  077%=      5-min Rain = 0
KEN1 260227Z 15020KT 20/16 A299 RMK A01 T02040162  RH  077%=      5-min Rain = 0
KEN1 260228Z 15018KT 20/16 A2991 RMK A01 T02040162  RH  077%=      5-min Rain = 0
KEN1 260229Z 14018KT 20/16 A2991 RMK A01 T02040163  RH  077%=      5-min Rain = 0
KEN1 260230Z 15018KT 20/16 A2991 RMK A01 T02040163  RH  078%=      5-min Rain = 0
KEN1 260231Z 15019KT 20/16 A299 RMK A01 T02030163  RH  078%=      5-min Rain = 0
KEN1 260232Z 15016KT 20/16 A299 RMK A01 T02030163  RH  078%=      5-min Rain = 0
KEN1 260233Z 15017G22KT 20/16 A299 RMK A01 T02030164  RH  078%=      5-min Rain = 0
KEN1 260234Z 14019KT 20/16 A299 RMK A01 T02020163  RH  078%=      5-min Rain = 0
KEN1 260235Z 15019KT 20/16 A299 RMK A01 T02020163  RH  078%=      5-min Rain = 0
KEN1 260236Z 15017KT 20/16 A299 RMK A01 T02020163  RH  078%=      5-min Rain = 0
KEN1 260237Z 15018KT 20/16 A299 RMK A01 T02020164  RH  079%=      5-min Rain = 0
KEN1 260238Z 14018KT 20/16 A299 RMK A01 T02020164  RH  079%=      5-min Rain = 0
KEN1 260239Z 15019KT 20/16 A299 RMK A01 T02020164  RH  079%=      5-min Rain = 0
KEN1 260240Z 15017KT 20/16 A299 RMK A01 T02010164  RH  079%=      5-min Rain = 0
KEN1 260241Z 15016KT 20/17 A299 RMK A01 T02020165  RH  079%=      5-min Rain = 0
KEN1 260242Z 15020KT 20/17 A299 RMK A01 T02010165  RH  079%=      5-min Rain = 0
KEN1 260243Z 15017KT 20/16 A299 RMK A01 T02010164  RH  079%=      5-min Rain = 0
KEN1 260244Z 14018KT 20/17 A299 RMK A01 T02010165  RH  080%=      5-min Rain = 0
KEN1 260245Z 15017KT 20/17 A2991 RMK A01 T02010165  RH  080%=      5-min Rain = 0
KEN1 260246Z 14019KT 20/17 A2991 RMK A01 T02010165  RH  080%=      5-min Rain = 0
KEN1 260247Z 14018KT 20/17 A299 RMK A01 T02010166  RH  080%=      5-min Rain = 0
KEN1 260248Z 14018KT 20/17 A2991 RMK A01 T02010166  RH  080%=      5-min Rain = 0
KEN1 260249Z 14018KT 20/17 A2991 RMK A01 T02010166  RH  080%=      5-min Rain = 0
KEN1 260250Z 14017KT 20/17 A2991 RMK A01 T02010166  RH  080%=      5-min Rain = 0
KEN1 260251Z 14020KT 20/17 A2991 RMK A01 T02000166  RH  080%=      5-min Rain = 0
KEN1 260252Z 14019G24KT 20/17 A2991 RMK A01 T02010166  RH  080%=      5-min Rain = 0
KEN1 260253Z 14016KT 20/17 A2991 RMK A01 T02000166  RH  080%=      5-min Rain = 0
KEN1 260254Z 14018G23KT 20/17 A2991 RMK A01 T02000166  RH  081%=      5-min Rain = 0
KEN1 260255Z 14019KT 20/17 A2991 RMK A01 T02000166  RH  081%=      5-min Rain = 0
KEN1 260256Z 14020KT 20/17 A2991 RMK A01 T02000166  RH  081%=      5-min Rain = 0
KEN1 260257Z 14022KT 20/17 A2991 RMK A01 T01990165  RH  081%=      5-min Rain = 0
KEN1 260258Z 14021KT 20/17 A2991 RMK A01 T02000165  RH  080%=      5-min Rain = 0
KEN1 260259Z 14020KT 20/17 A2991 RMK A01 T02000165  RH  080%=      5-min Rain = 0
KEN1 260300Z 14021KT 20/17 A2991 RMK A01 T01990165  RH  080%=      5-min Rain = 0
KEN1 260301Z 14022KT 20/17 A2991 RMK A01 T01990165  RH  080%=      5-min Rain = 0
KEN1 260302Z 14021KT 20/17 A2991 RMK A01 T01990165  RH  081%=      5-min Rain = 0
KEN1 260303Z 15021G26KT 20/17 A2991 RMK A01 T01990165  RH  081%=      5-min Rain = 0
KEN1 260304Z 14021KT 20/17 A299 RMK A01 T01980165  RH  081%=      5-min Rain = 0
KEN1 260305Z 14017KT 20/17 A2991 RMK A01 T01980165  RH  082%=      5-min Rain = 0
KEN1 260306Z 15019KT 20/17 A2991 RMK A01 T01970165  RH  082%=      5-min Rain = 0
KEN1 260307Z 14020KT 20/17 A2991 RMK A01 T01960165  RH  082%=      5-min Rain = 0
KEN1 260308Z 15020KT 20/17 A2991 RMK A01 T01960165  RH  082%=      5-min Rain = 0
KEN1 260309Z 15022KT 20/17 A2991 RMK A01 T01960165  RH  082%=      5-min Rain = 0
KEN1 260310Z 15021KT 20/17 A2991 RMK A01 T01960165  RH  082%=      5-min Rain = 0
KEN1 260311Z 15019KT 20/17 A2991 RMK A01 T01960165  RH  082%=      5-min Rain = 0
KEN1 260312Z 15019KT 20/17 A2991 RMK A01 T01950166  RH  083%=      5-min Rain = 0
KEN1 260313Z 15020KT 20/17 A2991 RMK A01 T01950166  RH  083%=      5-min Rain = 0
KEN1 260314Z 15019KT 19/17 A2991 RMK A01 T01940165  RH  083%=      5-min Rain = 0
KEN1 260315Z 15018KT 19/17 A2991 RMK A01 T01940165  RH  083%=      5-min Rain = 0
KEN1 260316Z 15023KT 19/17 A2991 RMK A01 T01940166  RH  084%=      5-min Rain = 0
KEN1 260317Z 15020KT 19/17 A2991 RMK A01 T01930165  RH  084%=      5-min Rain = 0
KEN1 260318Z 15020KT 19/17 A2991 RMK A01 T01930165  RH  084%=      5-min Rain = 0
KEN1 260319Z 15019KT 19/17 A2992 RMK A01 T01940166  RH  084%=      5-min Rain = 0
KEN1 260320Z 15019KT 19/17 A2992 RMK A01 T01930166  RH  084%=      5-min Rain = 0
KEN1 260321Z 15020KT 19/17 A2992 RMK A01 T01930166  RH  084%=      5-min Rain = 0
KEN1 260322Z 16021KT 19/17 A2992 RMK A01 T01930166  RH  085%=      5-min Rain = 0
KEN1 260323Z 15019KT 19/17 A2992 RMK A01 T01930166  RH  085%=      5-min Rain = 0
KEN1 260324Z 16017G23KT 19/17 A2992 RMK A01 T01920166  RH  085%=      5-min Rain = 0
KEN1 260325Z 15018KT 19/17 A2992 RMK A01 T01920166  RH  085%=      5-min Rain = 0
KEN1 260326Z 15020KT 19/17 A2992 RMK A01 T01910166  RH  085%=      5-min Rain = 0
KEN1 260327Z 15019G24KT 19/17 A2993 RMK A01 T01910166  RH  086%=      5-min Rain = 0
KEN1 260328Z 15021G26KT 19/17 A2993 RMK A01 T01910166  RH  086%=      5-min Rain = 0
KEN1 260329Z 15019KT 19/17 A2993 RMK A01 T01910166  RH  086%=      5-min Rain = 0
KEN1 260330Z 15017KT 19/17 A2993 RMK A01 T01910166  RH  086%=      5-min Rain = 0
KEN1 260331Z 16018KT 19/17 A2993 RMK A01 T01900166  RH  086%=      5-min Rain = 0
KEN1 260332Z 16016KT 19/17 A2993 RMK A01 T01900166  RH  086%=      5-min Rain = 0
KEN1 260333Z 16014KT 19/17 A2994 RMK A01 T01900166  RH  086%=      5-min Rain = 0
KEN1 260334Z 16014KT 19/17 A2994 RMK A01 T01900166  RH  086%=      5-min Rain = 0
KEN1 260335Z 16017KT 19/17 A2994 RMK A01 T01900167  RH  086%=      5-min Rain = 0
KEN1 260336Z 16017KT 19/17 A2994 RMK A01 T01900166  RH  086%=      5-min Rain = 0
KEN1 260337Z 15019KT 19/17 A2994 RMK A01 T01900166  RH  086%=      5-min Rain = 0
KEN1 260338Z 15019KT 19/17 A2994 RMK A01 T01890166  RH  086%=      5-min Rain = 0
KEN1 260339Z 15016G22KT 19/17 A2994 RMK A01 T01890165  RH  086%=      5-min Rain = 0
KEN1 260340Z 15015KT 19/17 A2994 RMK A01 T01890165  RH  086%=      5-min Rain = 0
KEN1 260341Z 15016KT 19/17 A2994 RMK A01 T01890165  RH  086%=      5-min Rain = 0
KEN1 260342Z 15014KT 19/17 A2995 RMK A01 T01890165  RH  086%=      5-min Rain = 0
KEN1 260343Z 15016KT 19/17 A2995 RMK A01 T01890165  RH  086%=      5-min Rain = 0
KEN1 260344Z 16016KT 19/16 A2995 RMK A01 T01880164  RH  086%=      5-min Rain = 0
KEN1 260345Z 15015KT 19/16 A2995 RMK A01 T01880164  RH  086%=      5-min Rain = 0
KEN1 260346Z 15014KT 19/16 A2995 RMK A01 T01880164  RH  086%=      5-min Rain = 0
KEN1 260347Z 15015KT 19/16 A2995 RMK A01 T01880163  RH  085%=      5-min Rain = 0
KEN1 260348Z 16012KT 19/16 A2995 RMK A01 T01880163  RH  086%=      5-min Rain = 0
KEN1 260349Z 15015KT 19/16 A2995 RMK A01 T01870163  RH  086%=      5-min Rain = 0
KEN1 260350Z 15016KT 19/16 A2995 RMK A01 T01870163  RH  086%=      5-min Rain = 0
KEN1 260351Z 15015KT 19/16 A2995 RMK A01 T01860163  RH  086%=      5-min Rain = 0
KEN1 260352Z 15016KT 19/16 A2995 RMK A01 T01860163  RH  086%=      5-min Rain = 0
KEN1 260353Z 15015KT 19/16 A2995 RMK A01 T01860163  RH  087%=      5-min Rain = 0
KEN1 260354Z 15015KT 19/16 A2995 RMK A01 T01850162  RH  087%=      5-min Rain = 0
KEN1 260355Z 15016KT 19/16 A2995 RMK A01 T01850163  RH  087%=      5-min Rain = 0
KEN1 260356Z 15014KT 19/16 A2995 RMK A01 T01850163  RH  087%=      5-min Rain = 0
KEN1 260357Z 15013KT 19/16 A2995 RMK A01 T01850163  RH  087%=      5-min Rain = 0
KEN1 260358Z 15013KT 19/16 A2995 RMK A01 T01850163  RH  087%=      5-min Rain = 0
KEN1 260359Z 15013KT 18/16 A2995 RMK A01 T01840163  RH  087%=      5-min Rain = 0
KEN1 260400Z 15013KT 18/16 A2995 RMK A01 T01840163  RH  088%=      5-min Rain = 0
KEN1 260401Z 15013KT 18/16 A2995 RMK A01 T01840163  RH  088%=      5-min Rain = 0
KEN1 260402Z 14014KT 18/16 A2995 RMK A01 T01830163  RH  088%=      5-min Rain = 0
KEN1 260403Z 14013KT 18/16 A2995 RMK A01 T01830162  RH  088%=      5-min Rain = 0
KEN1 260404Z 14014KT 18/16 A2995 RMK A01 T01830162  RH  088%=      5-min Rain = 0
KEN1 260405Z 15013KT 18/16 A2995 RMK A01 T01820162  RH  088%=      5-min Rain = 0
KEN1 260406Z 15014KT 18/16 A2995 RMK A01 T01820162  RH  088%=      5-min Rain = 0
KEN1 260407Z 15014KT 18/16 A2995 RMK A01 T01820163  RH  089%=      5-min Rain = 0
KEN1 260408Z 14014KT 18/16 A2995 RMK A01 T01820163  RH  089%=      5-min Rain = 0
KEN1 260409Z 14014KT 18/16 A2995 RMK A01 T01820163  RH  089%=      5-min Rain = 0
KEN1 260410Z 14013KT 18/16 A2995 RMK A01 T01820163  RH  089%=      5-min Rain = 0
KEN1 260411Z 14013KT 18/16 A2995 RMK A01 T01810163  RH  089%=      5-min Rain = 0
KEN1 260412Z 15015KT 18/16 A2995 RMK A01 T01810163  RH  089%=      5-min Rain = 0
KEN1 260413Z 15015KT 18/16 A2995 RMK A01 T01810164  RH  090%=      5-min Rain = 0
KEN1 260414Z 15015KT 18/16 A2995 RMK A01 T01810164  RH  090%=      5-min Rain = 0
KEN1 260415Z 14016KT 18/16 A2995 RMK A01 T01810164  RH  090%=      5-min Rain = 0
KEN1 260416Z 15016KT 18/16 A2995 RMK A01 T01820164  RH  089%=      5-min Rain = 0
KEN1 260417Z 15014KT 18/16 A2995 RMK A01 T01820164  RH  089%=      5-min Rain = 0
KEN1 260418Z 15012KT 18/17 A2995 RMK A01 T01830165  RH  089%=      5-min Rain = 0
KEN1 260419Z 15016KT 18/17 A2995 RMK A01 T01830165  RH  089%=      5-min Rain = 0
KEN1 260420Z 15015KT 18/17 A2995 RMK A01 T01830166  RH  090%=      5-min Rain = 0
KEN1 260421Z 15014KT 18/17 A2995 RMK A01 T01840167  RH  090%=      5-min Rain = 0
KEN1 260422Z 15013KT 18/17 A2995 RMK A01 T01840167  RH  090%=      5-min Rain = 0
KEN1 260423Z 15013KT 19/17 A2995 RMK A01 T01850167  RH  090%=      5-min Rain = 0
KEN1 260424Z 15014KT 19/17 A2996 RMK A01 T01850168  RH  090%=      5-min Rain = 0
KEN1 260425Z 15014KT 19/17 A2996 RMK A01 T01850168  RH  090%=      5-min Rain = 0
KEN1 260426Z 15015KT 19/17 A2996 RMK A01 T01850169  RH  090%=      5-min Rain = 0
KEN1 260427Z 15015KT 19/17 A2996 RMK A01 T01860169  RH  090%=      5-min Rain = 0
KEN1 260428Z 15014KT 19/17 A2996 RMK A01 T01870170  RH  090%=      5-min Rain = 0
KEN1 260429Z 15014KT 19/17 A2996 RMK A01 T01880170  RH  090%=      5-min Rain = 0
KEN1 260430Z 15013KT 19/17 A2996 RMK A01 T01880171  RH  090%=      5-min Rain = 0
KEN1 260431Z 15013KT 19/17 A2996 RMK A01 T01890171  RH  089%=      5-min Rain = 0
KEN1 260432Z 15012KT 19/17 A2996 RMK A01 T01890171  RH  090%=      5-min Rain = 0
KEN1 260433Z 15014KT 19/17 A2996 RMK A01 T01890172  RH  090%=      5-min Rain = 0
KEN1 260434Z 15015KT 19/17 A2996 RMK A01 T01900173  RH  090%=      5-min Rain = 0
KEN1 260435Z 16013KT 19/17 A2995 RMK A01 T01910173  RH  089%=      5-min Rain = 0
KEN1 260436Z 15014KT 19/17 A2995 RMK A01 T01910173  RH  089%=      5-min Rain = 0
KEN1 260437Z 15015KT 19/17 A2995 RMK A01 T01910173  RH  089%=      5-min Rain = 0
KEN1 260438Z 15015KT 19/17 A2995 RMK A01 T01920174  RH  089%=      5-min Rain = 0
KEN1 260439Z 16015KT 19/17 A2995 RMK A01 T01920174  RH  089%=      5-min Rain = 0
KEN1 260440Z 15015KT 19/17 A2995 RMK A01 T01920174  RH  089%=      5-min Rain = 0
KEN1 260441Z 16016KT 19/17 A2995 RMK A01 T01930174  RH  089%=      5-min Rain = 0
KEN1 260442Z 15016KT 19/18 A2995 RMK A01 T01930175  RH  089%=      5-min Rain = 0
KEN1 260443Z 16016KT 19/18 A2995 RMK A01 T01940175  RH  089%=      5-min Rain = 0
KEN1 260444Z 16016G21KT 19/18 A2995 RMK A01 T01940175  RH  089%=      5-min Rain = 0
KEN1 260445Z 16017KT 20/18 A2995 RMK A01 T01950175  RH  089%=      5-min Rain = 0
KEN1 260446Z 16015KT 20/18 A2995 RMK A01 T01950175  RH  088%=      5-min Rain = 0
KEN1 260447Z 16016G21KT 20/18 A2996 RMK A01 T01950175  RH  088%=      5-min Rain = 0
KEN1 260448Z 16015KT 20/18 A2996 RMK A01 T01950175  RH  088%=      5-min Rain = 0
KEN1 260449Z 16017KT 20/18 A2996 RMK A01 T01950175  RH  088%=      5-min Rain = 0
KEN1 260450Z 16017KT 20/18 A2995 RMK A01 T01950176  RH  088%=      5-min Rain = 0
KEN1 260451Z 16019KT 20/18 A2995 RMK A01 T01960176  RH  088%=      5-min Rain = 0
KEN1 260452Z 16016KT 20/18 A2996 RMK A01 T01960176  RH  088%=      5-min Rain = 0
KEN1 260453Z 16015KT 20/18 A2996 RMK A01 T01960176  RH  088%=      5-min Rain = 0
KEN1 260454Z 16016KT 20/18 A2996 RMK A01 T01960176  RH  088%=      5-min Rain = 0
KEN1 260455Z 16016KT 20/18 A2995 RMK A01 T01950176  RH  088%=      5-min Rain = 0
KEN1 260456Z 16018KT 20/18 A2996 RMK A01 T01960176  RH  088%=      5-min Rain = 0
KEN1 260457Z 16016KT 20/18 A2996 RMK A01 T01950176  RH  088%=      5-min Rain = 0
KEN1 260458Z 16016KT 20/18 A2996 RMK A01 T01960176  RH  088%=      5-min Rain = 0
KEN1 260459Z 16015KT 20/18 A2996 RMK A01 T01950176  RH  088%=      5-min Rain = 0

Page generated in 0.0427 seconds.